<?xml version='1.0' encoding='UTF-8'?><gpx version="1.1" creator="JPX - https://github.com/jenetics/jpx" xmlns="http://www.topografix.com/GPX/1/1"><trk><trkseg><trkpt lat="44.30077127312847" lon="9.484141641714327"><ele>322.0</ele><time>2026-04-04T08:38:37Z</time></trkpt><trkpt lat="44.30067191393767" lon="9.484151592824972"><ele>322.0</ele><time>2026-04-04T08:38:39Z</time></trkpt><trkpt lat="44.30061499618481" lon="9.484216025511884"><ele>322.0</ele><time>2026-04-04T08:38:40.999Z</time></trkpt><trkpt lat="44.30056051033435" lon="9.484269705882069"><ele>322.0</ele><time>2026-04-04T08:38:41.999Z</time></trkpt><trkpt lat="44.30054155846508" lon="9.484376829416087"><ele>322.0</ele><time>2026-04-04T08:38:43.999Z</time></trkpt><trkpt lat="44.30050535131755" lon="9.48446511606823"><ele>322.0</ele><time>2026-04-04T08:38:45.999Z</time></trkpt><trkpt lat="44.300506795169" lon="9.484642194115175"><ele>321.8</ele><time>2026-04-04T08:38:47.999Z</time></trkpt><trkpt lat="44.300566506379006" lon="9.484789004506858"><ele>321.6</ele><time>2026-04-04T08:38:49.999Z</time></trkpt><trkpt lat="44.300599397333286" lon="9.484933533820223"><ele>321.40000000000003</ele><time>2026-04-04T08:38:51.999Z</time></trkpt><trkpt lat="44.30061173879104" lon="9.485024130007075"><ele>321.20000000000005</ele><time>2026-04-04T08:38:52.999Z</time></trkpt><trkpt lat="44.30056389603219" lon="9.485161192729603"><ele>321.0</ele><time>2026-04-04T08:38:54.999Z</time></trkpt><trkpt lat="44.3004924505557" lon="9.485287684732068"><ele>323.5</ele><time>2026-04-04T08:38:56.999Z</time></trkpt><trkpt lat="44.30040056343816" lon="9.485440230223448"><ele>326.0</ele><time>2026-04-04T08:38:58.999Z</time></trkpt><trkpt lat="44.300336268839835" lon="9.485499832816258"><ele>328.5</ele><time>2026-04-04T08:38:59.999Z</time></trkpt><trkpt lat="44.30029916600112" lon="9.485584178412546"><ele>331.0</ele><time>2026-04-04T08:39:00.999Z</time></trkpt><trkpt lat="44.30025240644017" lon="9.48565140143023"><ele>333.5</ele><time>2026-04-04T08:39:01.999Z</time></trkpt><trkpt lat="44.30022049430762" lon="9.485740013804401"><ele>336.0</ele><time>2026-04-04T08:39:02.999Z</time></trkpt><trkpt lat="44.30018239264523" lon="9.485816152623928"><ele>336.0</ele><time>2026-04-04T08:39:04Z</time></trkpt><trkpt lat="44.300167453158735" lon="9.485927649673538"><ele>336.0</ele><time>2026-04-04T08:39:06Z</time></trkpt><trkpt lat="44.3000945598974" lon="9.485989980809581"><ele>336.0</ele><time>2026-04-04T08:39:08Z</time></trkpt><trkpt lat="44.29999166598015" lon="9.48590638516277"><ele>336.0</ele><time>2026-04-04T08:39:10Z</time></trkpt><trkpt lat="44.2999180562722" lon="9.485913315447991"><ele>336.0</ele><time>2026-04-04T08:39:11Z</time></trkpt><trkpt lat="44.299848839189806" lon="9.485916495486698"><ele>336.0</ele><time>2026-04-04T08:39:12Z</time></trkpt><trkpt lat="44.299715898344964" lon="9.485979819124333"><ele>335.3333333333333</ele><time>2026-04-04T08:39:14Z</time></trkpt><trkpt lat="44.29963766259074" lon="9.486044230453315"><ele>334.6666666666667</ele><time>2026-04-04T08:39:15Z</time></trkpt><trkpt lat="44.29957637992773" lon="9.486081495935913"><ele>334.0</ele><time>2026-04-04T08:39:18Z</time></trkpt><trkpt lat="44.29956128514348" lon="9.48618914720869"><ele>333.33333333333337</ele><time>2026-04-04T08:39:40Z</time></trkpt><trkpt lat="44.29957929654951" lon="9.48629542454518"><ele>332.6666666666667</ele><time>2026-04-04T08:39:42Z</time></trkpt><trkpt lat="44.29968246481654" lon="9.486340007684088"><ele>332.0</ele><time>2026-04-04T08:39:44Z</time></trkpt><trkpt lat="44.29976924336269" lon="9.486412148334544"><ele>335.40000000000003</ele><time>2026-04-04T08:39:46Z</time></trkpt><trkpt lat="44.2998501807724" lon="9.486498816993658"><ele>338.8</ele><time>2026-04-04T08:39:48Z</time></trkpt><trkpt lat="44.299916760021006" lon="9.486617612579382"><ele>342.2</ele><time>2026-04-04T08:39:50Z</time></trkpt><trkpt lat="44.299911751935824" lon="9.486758635664923"><ele>345.6</ele><time>2026-04-04T08:39:52Z</time></trkpt><trkpt lat="44.2998886208003" lon="9.486914619913634"><ele>349.0</ele><time>2026-04-04T08:39:54Z</time></trkpt><trkpt lat="44.29989135129838" lon="9.487019950869373"><ele>351.2</ele><time>2026-04-04T08:39:55Z</time></trkpt><trkpt lat="44.29986579857958" lon="9.4871518440436"><ele>353.4</ele><time>2026-04-04T08:39:57Z</time></trkpt><trkpt lat="44.299843708856436" lon="9.487278773452747"><ele>355.6</ele><time>2026-04-04T08:39:59Z</time></trkpt><trkpt lat="44.299847992347765" lon="9.487401779066333"><ele>357.8</ele><time>2026-04-04T08:40:01Z</time></trkpt><trkpt lat="44.29986217703109" lon="9.487547419226663"><ele>360.0</ele><time>2026-04-04T08:40:03Z</time></trkpt><trkpt lat="44.29990855061305" lon="9.487689899361916"><ele>360.0</ele><time>2026-04-04T08:40:05Z</time></trkpt><trkpt lat="44.2999979210556" lon="9.487811544891319"><ele>360.0</ele><time>2026-04-04T08:40:07Z</time></trkpt><trkpt lat="44.30003254547503" lon="9.487923915667826"><ele>360.0</ele><time>2026-04-04T08:40:08Z</time></trkpt><trkpt lat="44.30005173482391" lon="9.48801459072344"><ele>360.0</ele><time>2026-04-04T08:40:09Z</time></trkpt><trkpt lat="44.300081344437245" lon="9.48812361672035"><ele>360.0</ele><time>2026-04-04T08:40:10Z</time></trkpt><trkpt lat="44.300120206533016" lon="9.488216855484499"><ele>360.0</ele><time>2026-04-04T08:40:11Z</time></trkpt><trkpt lat="44.300138746696994" lon="9.48832050094724"><ele>361.57142857142856</ele><time>2026-04-04T08:40:12Z</time></trkpt><trkpt lat="44.300170647635184" lon="9.488400235761004"><ele>363.14285714285717</ele><time>2026-04-04T08:40:13Z</time></trkpt><trkpt lat="44.30016924092622" lon="9.488496036529778"><ele>364.7142857142857</ele><time>2026-04-04T08:40:14Z</time></trkpt><trkpt lat="44.30014387419859" lon="9.488584711099504"><ele>366.2857142857143</ele><time>2026-04-04T08:40:15Z</time></trkpt><trkpt lat="44.300137065145485" lon="9.488699642297806"><ele>367.8571428571429</ele><time>2026-04-04T08:40:16Z</time></trkpt><trkpt lat="44.30013382900403" lon="9.488800632254755"><ele>369.42857142857144</ele><time>2026-04-04T08:40:17Z</time></trkpt><trkpt lat="44.30013255202158" lon="9.488900319575773"><ele>371.0</ele><time>2026-04-04T08:40:18Z</time></trkpt><trkpt lat="44.30013255202273" lon="9.488998471767857"><ele>372.83333333333337</ele><time>2026-04-04T08:40:19Z</time></trkpt><trkpt lat="44.30014166063612" lon="9.489116944072485"><ele>374.6666666666667</ele><time>2026-04-04T08:40:20Z</time></trkpt><trkpt lat="44.30016154870255" lon="9.48923194483817"><ele>376.5</ele><time>2026-04-04T08:40:21Z</time></trkpt><trkpt lat="44.30020881364554" lon="9.489330711703643"><ele>378.3333333333333</ele><time>2026-04-04T08:40:22Z</time></trkpt><trkpt lat="44.30028458522851" lon="9.489377976214127"><ele>380.16666666666663</ele><time>2026-04-04T08:40:23Z</time></trkpt><trkpt lat="44.30035088759903" lon="9.489494403104496"><ele>382.0</ele><time>2026-04-04T08:40:25Z</time></trkpt><trkpt lat="44.300324949261054" lon="9.489627709150593"><ele>385.5</ele><time>2026-04-04T08:40:27Z</time></trkpt><trkpt lat="44.300263123308554" lon="9.48971505682011"><ele>389.0</ele><time>2026-04-04T08:40:29Z</time></trkpt><trkpt lat="44.300214589621774" lon="9.489798419845117"><ele>392.5</ele><time>2026-04-04T08:40:31Z</time></trkpt><trkpt lat="44.30013200894667" lon="9.489836078524192"><ele>396.0</ele><time>2026-04-04T08:40:35Z</time></trkpt><trkpt lat="44.30006545767054" lon="9.489863636957665"><ele>399.50000000000006</ele><time>2026-04-04T08:40:37Z</time></trkpt><trkpt lat="44.299960020944795" lon="9.48990093704357"><ele>403.0</ele><time>2026-04-04T08:40:40Z</time></trkpt><trkpt lat="44.29989824856413" lon="9.489920985045266"><ele>403.0</ele><time>2026-04-04T08:40:42Z</time></trkpt><trkpt lat="44.29983288527059" lon="9.489942198448064"><ele>403.0</ele><time>2026-04-04T08:40:46Z</time></trkpt><trkpt lat="44.29977642712327" lon="9.4899835405211"><ele>403.0</ele><time>2026-04-04T08:40:48Z</time></trkpt><trkpt lat="44.2997126196724" lon="9.489997558774187"><ele>403.0</ele><time>2026-04-04T08:40:49Z</time></trkpt><trkpt lat="44.299630946542926" lon="9.49001059330596"><ele>403.0</ele><time>2026-04-04T08:40:50Z</time></trkpt><trkpt lat="44.29957235833577" lon="9.49005521474071"><ele>403.0</ele><time>2026-04-04T08:40:51Z</time></trkpt><trkpt lat="44.29950734646412" lon="9.490057587086502"><ele>403.0</ele><time>2026-04-04T08:40:52Z</time></trkpt><trkpt lat="44.29940308610682" lon="9.490099376385368"><ele>402.1666666666667</ele><time>2026-04-04T08:40:54Z</time></trkpt><trkpt lat="44.299342333880226" lon="9.490132944907755"><ele>401.33333333333337</ele><time>2026-04-04T08:40:55Z</time></trkpt><trkpt lat="44.29927953776619" lon="9.490175215657453"><ele>400.5</ele><time>2026-04-04T08:40:56Z</time></trkpt><trkpt lat="44.29922291760873" lon="9.490221675273249"><ele>399.66666666666663</ele><time>2026-04-04T08:40:57Z</time></trkpt><trkpt lat="44.29912705703336" lon="9.490323785663128"><ele>398.8333333333333</ele><time>2026-04-04T08:40:59Z</time></trkpt><trkpt lat="44.29906743891581" lon="9.490455909999246"><ele>398.0</ele><time>2026-04-04T08:41:01Z</time></trkpt><trkpt lat="44.29907846388465" lon="9.490550921750884"><ele>403.5</ele><time>2026-04-04T08:41:02Z</time></trkpt><trkpt lat="44.29916097837852" lon="9.490624414050897"><ele>409.0</ele><time>2026-04-04T08:41:03Z</time></trkpt><trkpt lat="44.29933669292452" lon="9.490485622335402"><ele>414.5</ele><time>2026-04-04T08:41:06Z</time></trkpt><trkpt lat="44.29943853775068" lon="9.490483057936348"><ele>420.0</ele><time>2026-04-04T08:41:09Z</time></trkpt><trkpt lat="44.29949289084212" lon="9.490565590499301"><ele>420.0</ele><time>2026-04-04T08:41:12Z</time></trkpt><trkpt lat="44.299577109426885" lon="9.490602982969369"><ele>420.0</ele><time>2026-04-04T08:41:14Z</time></trkpt><trkpt lat="44.29977036263965" lon="9.490538367548561"><ele>420.0</ele><time>2026-04-04T08:41:19Z</time></trkpt><trkpt lat="44.299838409610224" lon="9.490536606255482"><ele>420.0</ele><time>2026-04-04T08:41:20Z</time></trkpt><trkpt lat="44.299904584898826" lon="9.490535265264501"><ele>420.0</ele><time>2026-04-04T08:41:21Z</time></trkpt><trkpt lat="44.30001604992914" lon="9.490538130660527"><ele>422.1666666666667</ele><time>2026-04-04T08:41:27Z</time></trkpt><trkpt lat="44.30006408058487" lon="9.490595060497185"><ele>424.33333333333337</ele><time>2026-04-04T08:41:56Z</time></trkpt><trkpt lat="44.30017856091322" lon="9.490690745442114"><ele>426.5</ele><time>2026-04-04T08:41:59Z</time></trkpt><trkpt lat="44.300235489394794" lon="9.490753027027269"><ele>428.6666666666667</ele><time>2026-04-04T08:42:01Z</time></trkpt><trkpt lat="44.30031728459623" lon="9.490789452169883"><ele>430.83333333333337</ele><time>2026-04-04T08:42:04Z</time></trkpt><trkpt lat="44.30034817191824" lon="9.490911736237335"><ele>433.0</ele><time>2026-04-04T08:42:20Z</time></trkpt><trkpt lat="44.30038849724926" lon="9.491019520805665"><ele>433.00000000000006</ele><time>2026-04-04T08:42:48.001Z</time></trkpt><trkpt lat="44.300444623360825" lon="9.491122358782292"><ele>433.0</ele><time>2026-04-04T08:42:50.001Z</time></trkpt><trkpt lat="44.30049255298833" lon="9.491217393553725"><ele>433.0</ele><time>2026-04-04T08:42:52Z</time></trkpt><trkpt lat="44.30052956676045" lon="9.49132212584882"><ele>433.0</ele><time>2026-04-04T08:42:54Z</time></trkpt><trkpt lat="44.30054175288064" lon="9.49144164410954"><ele>433.00000000000006</ele><time>2026-04-04T08:42:56Z</time></trkpt><trkpt lat="44.3005760549267" lon="9.491571758206163"><ele>433.0</ele><time>2026-04-04T08:42:58Z</time></trkpt><trkpt lat="44.30055582614365" lon="9.491691863972529"><ele>437.2</ele><time>2026-04-04T08:43:00Z</time></trkpt><trkpt lat="44.300588956764464" lon="9.491797333094473"><ele>441.4</ele><time>2026-04-04T08:43:01Z</time></trkpt><trkpt lat="44.3006466336259" lon="9.49193347526937"><ele>445.59999999999997</ele><time>2026-04-04T08:43:03Z</time></trkpt><trkpt lat="44.30071907144985" lon="9.491965069511998"><ele>449.79999999999995</ele><time>2026-04-04T08:43:05Z</time></trkpt><trkpt lat="44.30081565973419" lon="9.492078663527977"><ele>454.0</ele><time>2026-04-04T08:43:07Z</time></trkpt><trkpt lat="44.300818283271155" lon="9.492168355056721"><ele>456.4</ele><time>2026-04-04T08:43:10Z</time></trkpt><trkpt lat="44.30073091675454" lon="9.492218904269032"><ele>458.79999999999995</ele><time>2026-04-04T08:43:19Z</time></trkpt><trkpt lat="44.30064714011528" lon="9.492303983500207"><ele>461.20000000000005</ele><time>2026-04-04T08:43:21Z</time></trkpt><trkpt lat="44.300670843432904" lon="9.492418230757979"><ele>463.6</ele><time>2026-04-04T08:43:23Z</time></trkpt><trkpt lat="44.300800016684" lon="9.492426523336855"><ele>466.0</ele><time>2026-04-04T08:43:26Z</time></trkpt><trkpt lat="44.30088871428746" lon="9.492398540253085"><ele>466.0</ele><time>2026-04-04T08:43:28Z</time></trkpt><trkpt lat="44.30097684094324" lon="9.492460649407741"><ele>466.0</ele><time>2026-04-04T08:43:29Z</time></trkpt><trkpt lat="44.30104821307515" lon="9.492590412139215"><ele>466.0</ele><time>2026-04-04T08:43:31Z</time></trkpt><trkpt lat="44.30107361686232" lon="9.49272232365018"><ele>466.0</ele><time>2026-04-04T08:43:33Z</time></trkpt><trkpt lat="44.30109066468841" lon="9.492937566659675"><ele>469.6</ele><time>2026-04-04T08:43:35Z</time></trkpt><trkpt lat="44.301140814507285" lon="9.49308964305052"><ele>473.20000000000005</ele><time>2026-04-04T08:43:37Z</time></trkpt><trkpt lat="44.30124773031389" lon="9.49318314936291"><ele>476.79999999999995</ele><time>2026-04-04T08:43:39Z</time></trkpt><trkpt lat="44.30132128143352" lon="9.493191281217074"><ele>480.4</ele><time>2026-04-04T08:43:41Z</time></trkpt><trkpt lat="44.30137956101447" lon="9.493121456858153"><ele>484.0</ele><time>2026-04-04T08:43:44Z</time></trkpt><trkpt lat="44.301412310664055" lon="9.49298974248013"><ele>485.6</ele><time>2026-04-04T08:43:46Z</time></trkpt><trkpt lat="44.30144333402064" lon="9.4928258079517"><ele>487.2</ele><time>2026-04-04T08:43:48Z</time></trkpt><trkpt lat="44.30147673961563" lon="9.492640799881421"><ele>488.80000000000007</ele><time>2026-04-04T08:43:50Z</time></trkpt><trkpt lat="44.301495189373206" lon="9.49255339965506"><ele>490.40000000000003</ele><time>2026-04-04T08:43:51Z</time></trkpt><trkpt lat="44.30152687682428" lon="9.492420448037851"><ele>492.0</ele><time>2026-04-04T08:43:53Z</time></trkpt><trkpt lat="44.30154745861816" lon="9.492265995247555"><ele>492.0</ele><time>2026-04-04T08:43:56Z</time></trkpt><trkpt lat="44.3015210202703" lon="9.49212844537112"><ele>492.00000000000006</ele><time>2026-04-04T08:43:58Z</time></trkpt><trkpt lat="44.30153305213283" lon="9.49195271276237"><ele>492.00000000000006</ele><time>2026-04-04T08:44:00Z</time></trkpt><trkpt lat="44.30154575975442" lon="9.491841583487693"><ele>492.0</ele><time>2026-04-04T08:44:01Z</time></trkpt><trkpt lat="44.30157536481508" lon="9.491679270537311"><ele>492.0</ele><time>2026-04-04T08:44:03Z</time></trkpt><trkpt lat="44.30160375765491" lon="9.491542291917892"><ele>491.0</ele><time>2026-04-04T08:44:05Z</time></trkpt><trkpt lat="44.30160967083852" lon="9.491422201159606"><ele>490.0</ele><time>2026-04-04T08:44:09Z</time></trkpt><trkpt lat="44.301634427701494" lon="9.491323679594323"><ele>489.0</ele><time>2026-04-04T08:44:30Z</time></trkpt><trkpt lat="44.30169948248688" lon="9.491277542170076"><ele>488.0</ele><time>2026-04-04T08:44:56.001Z</time></trkpt><trkpt lat="44.30175868426977" lon="9.491186166812613"><ele>487.0</ele><time>2026-04-04T08:44:57.001Z</time></trkpt><trkpt lat="44.30181726505658" lon="9.491127049073524"><ele>486.0</ele><time>2026-04-04T08:44:58Z</time></trkpt><trkpt lat="44.301829381684826" lon="9.491009597392782"><ele>482.8333333333333</ele><time>2026-04-04T08:44:59Z</time></trkpt><trkpt lat="44.30187077615067" lon="9.490936295587941"><ele>479.66666666666663</ele><time>2026-04-04T08:45:00Z</time></trkpt><trkpt lat="44.30194088615956" lon="9.49086723485406"><ele>476.5</ele><time>2026-04-04T08:45:01Z</time></trkpt><trkpt lat="44.301997925840574" lon="9.490828173176743"><ele>473.3333333333333</ele><time>2026-04-04T08:45:02Z</time></trkpt><trkpt lat="44.302061155401226" lon="9.490812770315802"><ele>470.16666666666663</ele><time>2026-04-04T08:45:03Z</time></trkpt><trkpt lat="44.30213421379553" lon="9.49082181716151"><ele>467.0</ele><time>2026-04-04T08:45:04Z</time></trkpt><trkpt lat="44.30222930332117" lon="9.490886200526191"><ele>471.20000000000005</ele><time>2026-04-04T08:45:05Z</time></trkpt><trkpt lat="44.30227284243251" lon="9.490965874926617"><ele>475.40000000000003</ele><time>2026-04-04T08:45:06Z</time></trkpt><trkpt lat="44.302327871140214" lon="9.49110073021814"><ele>479.59999999999997</ele><time>2026-04-04T08:45:08Z</time></trkpt><trkpt lat="44.30237906466332" lon="9.491219459477591"><ele>483.79999999999995</ele><time>2026-04-04T08:45:10Z</time></trkpt><trkpt lat="44.302354340176315" lon="9.491309200643181"><ele>488.0</ele><time>2026-04-04T08:45:11Z</time></trkpt><trkpt lat="44.302381883739024" lon="9.491454521476834"><ele>492.66666666666663</ele><time>2026-04-04T08:45:13Z</time></trkpt><trkpt lat="44.30241305337893" lon="9.491583547436079"><ele>497.3333333333333</ele><time>2026-04-04T08:45:15Z</time></trkpt><trkpt lat="44.30248037425819" lon="9.491681598924313"><ele>502.0</ele><time>2026-04-04T08:45:17Z</time></trkpt><trkpt lat="44.30253757349879" lon="9.491720786114112"><ele>506.66666666666663</ele><time>2026-04-04T08:45:19Z</time></trkpt><trkpt lat="44.302612989278785" lon="9.491777298073089"><ele>511.3333333333333</ele><time>2026-04-04T08:45:21Z</time></trkpt><trkpt lat="44.30270724583259" lon="9.491821972820544"><ele>516.0</ele><time>2026-04-04T08:45:24Z</time></trkpt><trkpt lat="44.30277522621556" lon="9.491804281358235"><ele>516.0</ele><time>2026-04-04T08:45:26Z</time></trkpt><trkpt lat="44.302826113867276" lon="9.491699028258594"><ele>516.0</ele><time>2026-04-04T08:45:28Z</time></trkpt><trkpt lat="44.302882400994605" lon="9.491654336567752"><ele>516.0</ele><time>2026-04-04T08:45:29Z</time></trkpt><trkpt lat="44.30298136008283" lon="9.491569879724945"><ele>516.0</ele><time>2026-04-04T08:45:31Z</time></trkpt><trkpt lat="44.303053900027805" lon="9.49161283194104"><ele>516.0</ele><time>2026-04-04T08:45:33Z</time></trkpt><trkpt lat="44.30297862111148" lon="9.491732675075934"><ele>516.0</ele><time>2026-04-04T08:45:35Z</time></trkpt><trkpt lat="44.3028767582001" lon="9.491879763582027"><ele>516.0</ele><time>2026-04-04T08:45:37Z</time></trkpt><trkpt lat="44.302822122274186" lon="9.49193129450281"><ele>516.0</ele><time>2026-04-04T08:45:38Z</time></trkpt><trkpt lat="44.302756861831796" lon="9.492063707122563"><ele>516.0</ele><time>2026-04-04T08:45:40Z</time></trkpt><trkpt lat="44.302699351325906" lon="9.492175040063424"><ele>516.0</ele><time>2026-04-04T08:45:42Z</time></trkpt><trkpt lat="44.302669502421445" lon="9.492265456950786"><ele>518.1666666666666</ele><time>2026-04-04T08:45:43Z</time></trkpt><trkpt lat="44.30259047271785" lon="9.492339014910497"><ele>520.3333333333334</ele><time>2026-04-04T08:45:45Z</time></trkpt><trkpt lat="44.30251684301637" lon="9.49234280972058"><ele>522.5</ele><time>2026-04-04T08:45:47Z</time></trkpt><trkpt lat="44.30244231403383" lon="9.492285882450346"><ele>524.6666666666667</ele><time>2026-04-04T08:45:49Z</time></trkpt><trkpt lat="44.30233399144133" lon="9.492306116504778"><ele>526.8333333333334</ele><time>2026-04-04T08:45:51Z</time></trkpt><trkpt lat="44.302297314856006" lon="9.492405742587431"><ele>529.0</ele><time>2026-04-04T08:45:52Z</time></trkpt><trkpt lat="44.3023336617073" lon="9.492496806036959"><ele>529.0</ele><time>2026-04-04T08:45:53Z</time></trkpt><trkpt lat="44.302403598588825" lon="9.492571090251344"><ele>529.0</ele><time>2026-04-04T08:45:55Z</time></trkpt><trkpt lat="44.302444408338715" lon="9.49265729429228"><ele>529.0</ele><time>2026-04-04T08:45:57Z</time></trkpt><trkpt lat="44.30248710527149" lon="9.49277995930227"><ele>529.0</ele><time>2026-04-04T08:45:58Z</time></trkpt><trkpt lat="44.30254827541211" lon="9.492901486555441"><ele>529.0</ele><time>2026-04-04T08:45:59Z</time></trkpt><trkpt lat="44.30260935071668" lon="9.492972394434481"><ele>529.0</ele><time>2026-04-04T08:46:01Z</time></trkpt><trkpt lat="44.30268568506929" lon="9.492973000271576"><ele>529.0</ele><time>2026-04-04T08:46:02Z</time></trkpt><trkpt lat="44.30275735337277" lon="9.492928141307035"><ele>529.0</ele><time>2026-04-04T08:46:03Z</time></trkpt><trkpt lat="44.30285689007834" lon="9.492905766122297"><ele>529.0</ele><time>2026-04-04T08:46:04Z</time></trkpt><trkpt lat="44.30294353689821" lon="9.492890666357813"><ele>529.0</ele><time>2026-04-04T08:46:05Z</time></trkpt><trkpt lat="44.30302700453395" lon="9.492910504237217"><ele>529.0</ele><time>2026-04-04T08:46:07Z</time></trkpt><trkpt lat="44.30293546556621" lon="9.493051234794391"><ele>529.4</ele><time>2026-04-04T08:46:09Z</time></trkpt><trkpt lat="44.30292010297496" lon="9.493207036701877"><ele>529.8</ele><time>2026-04-04T08:46:11Z</time></trkpt><trkpt lat="44.30293452078857" lon="9.493317045524154"><ele>530.2</ele><time>2026-04-04T08:46:12Z</time></trkpt><trkpt lat="44.30296505788059" lon="9.493446958272903"><ele>530.6</ele><time>2026-04-04T08:46:14Z</time></trkpt><trkpt lat="44.303003051473844" lon="9.493582195810278"><ele>531.0</ele><time>2026-04-04T08:46:16Z</time></trkpt><trkpt lat="44.30303674510337" lon="9.493702402415076"><ele>531.0</ele><time>2026-04-04T08:46:18Z</time></trkpt><trkpt lat="44.303076602899324" lon="9.493807950140678"><ele>531.0</ele><time>2026-04-04T08:46:20Z</time></trkpt><trkpt lat="44.303152959443736" lon="9.493822651814922"><ele>531.0</ele><time>2026-04-04T08:46:21Z</time></trkpt><trkpt lat="44.30326307364675" lon="9.493843251623383"><ele>531.0</ele><time>2026-04-04T08:46:23Z</time></trkpt><trkpt lat="44.30335502511654" lon="9.49386374937268"><ele>531.0</ele><time>2026-04-04T08:46:25Z</time></trkpt><trkpt lat="44.303437084512844" lon="9.493917301582432"><ele>536.8</ele><time>2026-04-04T08:46:27Z</time></trkpt><trkpt lat="44.30343273844479" lon="9.494038684589592"><ele>542.6</ele><time>2026-04-04T08:46:29Z</time></trkpt><trkpt lat="44.303386922044666" lon="9.494145733056113"><ele>548.4</ele><time>2026-04-04T08:46:31.001Z</time></trkpt><trkpt lat="44.303289102278946" lon="9.494261173912733"><ele>554.2</ele><time>2026-04-04T08:46:33.001Z</time></trkpt><trkpt lat="44.3032542779778" lon="9.49439356022793"><ele>560.0</ele><time>2026-04-04T08:46:35.001Z</time></trkpt><trkpt lat="44.30325554359054" lon="9.494527052407408"><ele>560.5</ele><time>2026-04-04T08:46:37.001Z</time></trkpt><trkpt lat="44.30326518274016" lon="9.4946169555391"><ele>561.0</ele><time>2026-04-04T08:46:38.001Z</time></trkpt><trkpt lat="44.30333989080466" lon="9.49471967158275"><ele>561.5</ele><time>2026-04-04T08:46:40.001Z</time></trkpt><trkpt lat="44.30338158932408" lon="9.49478991914476"><ele>562.0</ele><time>2026-04-04T08:46:41.001Z</time></trkpt><trkpt lat="44.30342639509844" lon="9.494865401055181"><ele>562.5</ele><time>2026-04-04T08:46:42.001Z</time></trkpt><trkpt lat="44.303464356987696" lon="9.494941759600346"><ele>563.0</ele><time>2026-04-04T08:46:43.001Z</time></trkpt><trkpt lat="44.303509920993186" lon="9.495083626501092"><ele>563.0</ele><time>2026-04-04T08:46:45.001Z</time></trkpt><trkpt lat="44.30353053016088" lon="9.495185092134856"><ele>563.0</ele><time>2026-04-04T08:46:46.001Z</time></trkpt><trkpt lat="44.303559347009795" lon="9.495278584117225"><ele>563.0</ele><time>2026-04-04T08:46:47.001Z</time></trkpt><trkpt lat="44.30359319977822" lon="9.495395709680619"><ele>563.0</ele><time>2026-04-04T08:46:48.001Z</time></trkpt><trkpt lat="44.30362316881774" lon="9.49550343295304"><ele>563.0</ele><time>2026-04-04T08:46:49.001Z</time></trkpt><trkpt lat="44.30367153563722" lon="9.49559058742924"><ele>563.0</ele><time>2026-04-04T08:46:50.001Z</time></trkpt><trkpt lat="44.3037043076667" lon="9.495670535681649"><ele>563.6</ele><time>2026-04-04T08:46:51.001Z</time></trkpt><trkpt lat="44.30373069640849" lon="9.495754628936176"><ele>564.1999999999999</ele><time>2026-04-04T08:46:52.001Z</time></trkpt><trkpt lat="44.303776199068146" lon="9.495886894863151"><ele>564.8</ele><time>2026-04-04T08:46:54.001Z</time></trkpt><trkpt lat="44.303826564126354" lon="9.496009799412743"><ele>565.4</ele><time>2026-04-04T08:46:56.001Z</time></trkpt><trkpt lat="44.30389033912925" lon="9.496121084669177"><ele>566.0</ele><time>2026-04-04T08:46:58.001Z</time></trkpt><trkpt lat="44.30399039409509" lon="9.49622571573145"><ele>570.1666666666666</ele><time>2026-04-04T08:47:01.001Z</time></trkpt><trkpt lat="44.30411534038523" lon="9.49634667709197"><ele>574.3333333333333</ele><time>2026-04-04T08:47:05Z</time></trkpt><trkpt lat="44.30416717910717" lon="9.496412803865459"><ele>578.5</ele><time>2026-04-04T08:47:07Z</time></trkpt><trkpt lat="44.30421515172269" lon="9.496499855913052"><ele>582.6666666666666</ele><time>2026-04-04T08:47:10Z</time></trkpt><trkpt lat="44.30426463444008" lon="9.49656882406788"><ele>586.8333333333334</ele><time>2026-04-04T08:47:12Z</time></trkpt><trkpt lat="44.30433531720681" lon="9.496591444408395"><ele>591.0</ele><time>2026-04-04T08:47:15Z</time></trkpt><trkpt lat="44.30439145486422" lon="9.496633840056974"><ele>591.0</ele><time>2026-04-04T08:47:20Z</time></trkpt><trkpt lat="44.30445569069309" lon="9.496782518110036"><ele>591.0</ele><time>2026-04-04T08:47:42Z</time></trkpt><trkpt lat="44.30439117442952" lon="9.496652527570834"><ele>591.0</ele><time>2026-04-04T08:48:03Z</time></trkpt><trkpt lat="44.30433005519253" lon="9.496609757108189"><ele>591.0</ele><time>2026-04-04T08:48:05Z</time></trkpt><trkpt lat="44.30427280534546" lon="9.496514030253593"><ele>591.0</ele><time>2026-04-04T08:48:07Z</time></trkpt><trkpt lat="44.30422540528663" lon="9.49644504275766"><ele>591.0</ele><time>2026-04-04T08:48:09Z</time></trkpt><trkpt lat="44.30416429985273" lon="9.496367764322136"><ele>591.0</ele><time>2026-04-04T08:48:12Z</time></trkpt><trkpt lat="44.3041067946644" lon="9.496317237497484"><ele>591.0</ele><time>2026-04-04T08:48:18Z</time></trkpt><trkpt lat="44.30415406982084" lon="9.496381519701195"><ele>591.0</ele><time>2026-04-04T08:48:24.001Z</time></trkpt><trkpt lat="44.30421970675884" lon="9.49647351594826"><ele>591.0</ele><time>2026-04-04T08:48:27.001Z</time></trkpt><trkpt lat="44.304288671314126" lon="9.496548080694168"><ele>591.0</ele><time>2026-04-04T08:48:30.001Z</time></trkpt><trkpt lat="44.3043522803999" lon="9.49659287102284"><ele>591.0</ele><time>2026-04-04T08:48:32.001Z</time></trkpt><trkpt lat="44.30443469973662" lon="9.496640896366486"><ele>591.0</ele><time>2026-04-04T08:48:34.001Z</time></trkpt><trkpt lat="44.30433494223317" lon="9.496591174135537"><ele>591.0</ele><time>2026-04-04T08:49:05.001Z</time></trkpt><trkpt lat="44.30422922982527" lon="9.496471174661858"><ele>591.0</ele><time>2026-04-04T08:49:07.001Z</time></trkpt><trkpt lat="44.30414637400165" lon="9.496340927116567"><ele>591.0</ele><time>2026-04-04T08:49:09.001Z</time></trkpt><trkpt lat="44.30407953890944" lon="9.496286098604727"><ele>591.0</ele><time>2026-04-04T08:49:11Z</time></trkpt><trkpt lat="44.30401775786163" lon="9.496248159973048"><ele>591.0</ele><time>2026-04-04T08:49:13Z</time></trkpt><trkpt lat="44.30396425488882" lon="9.496190211129846"><ele>591.0</ele><time>2026-04-04T08:49:15Z</time></trkpt><trkpt lat="44.30391650205109" lon="9.496103554347485"><ele>591.0</ele><time>2026-04-04T08:49:17Z</time></trkpt><trkpt lat="44.30386057758041" lon="9.49602765070989"><ele>591.0</ele><time>2026-04-04T08:49:19Z</time></trkpt><trkpt lat="44.30380995584337" lon="9.495873981019493"><ele>586.0</ele><time>2026-04-04T08:49:21Z</time></trkpt><trkpt lat="44.30379005687549" lon="9.49578546334125"><ele>581.0</ele><time>2026-04-04T08:49:22Z</time></trkpt><trkpt lat="44.30374192276873" lon="9.495628244668794"><ele>576.0</ele><time>2026-04-04T08:49:24Z</time></trkpt><trkpt lat="44.30367496287349" lon="9.495515156795197"><ele>571.0</ele><time>2026-04-04T08:49:26Z</time></trkpt><trkpt lat="44.303629484804745" lon="9.495449165012044"><ele>566.0</ele><time>2026-04-04T08:49:27Z</time></trkpt><trkpt lat="44.3035861042956" lon="9.495281926401963"><ele>565.4</ele><time>2026-04-04T08:49:29Z</time></trkpt><trkpt lat="44.30357130050108" lon="9.49516602299947"><ele>564.8</ele><time>2026-04-04T08:49:31Z</time></trkpt><trkpt lat="44.30353801617864" lon="9.495049245799"><ele>564.1999999999999</ele><time>2026-04-04T08:49:33Z</time></trkpt><trkpt lat="44.30350247530577" lon="9.494921785862392"><ele>563.6</ele><time>2026-04-04T08:49:35Z</time></trkpt><trkpt lat="44.30342200281129" lon="9.494808809929197"><ele>563.0</ele><time>2026-04-04T08:49:37Z</time></trkpt><trkpt lat="44.303369842894575" lon="9.494686967082199"><ele>562.5</ele><time>2026-04-04T08:49:39Z</time></trkpt><trkpt lat="44.303308782939986" lon="9.4945826197879"><ele>562.0</ele><time>2026-04-04T08:49:41Z</time></trkpt><trkpt lat="44.30328165974955" lon="9.494469946850014"><ele>561.5</ele><time>2026-04-04T08:49:43Z</time></trkpt><trkpt lat="44.303286728536534" lon="9.494312929462874"><ele>561.0</ele><time>2026-04-04T08:49:45Z</time></trkpt><trkpt lat="44.303337880904984" lon="9.494229689198944"><ele>560.5</ele><time>2026-04-04T08:49:47Z</time></trkpt><trkpt lat="44.30339696736883" lon="9.49417720944978"><ele>560.0</ele><time>2026-04-04T08:49:48Z</time></trkpt><trkpt lat="44.3034323598708" lon="9.494092379137525"><ele>560.0</ele><time>2026-04-04T08:49:49Z</time></trkpt><trkpt lat="44.30346820215492" lon="9.49399763824606"><ele>560.0</ele><time>2026-04-04T08:49:52Z</time></trkpt><trkpt lat="44.30346278411107" lon="9.493872390142604"><ele>560.0</ele><time>2026-04-04T08:49:54Z</time></trkpt><trkpt lat="44.30340190102915" lon="9.493829206620257"><ele>560.0</ele><time>2026-04-04T08:49:56Z</time></trkpt><trkpt lat="44.30328853606009" lon="9.493801958727426"><ele>560.0</ele><time>2026-04-04T08:49:58Z</time></trkpt><trkpt lat="44.3032034731642" lon="9.4938013171577"><ele>560.0</ele><time>2026-04-04T08:50:00Z</time></trkpt><trkpt lat="44.303138542767925" lon="9.493781664899887"><ele>558.6666666666666</ele><time>2026-04-04T08:50:02Z</time></trkpt><trkpt lat="44.303086440984025" lon="9.493683537366715"><ele>557.3333333333333</ele><time>2026-04-04T08:50:04Z</time></trkpt><trkpt lat="44.30304571288347" lon="9.493606884535904"><ele>556.0</ele><time>2026-04-04T08:50:06Z</time></trkpt><trkpt lat="44.30301230056191" lon="9.493487680889434"><ele>554.6666666666666</ele><time>2026-04-04T08:50:09Z</time></trkpt><trkpt lat="44.30298814893371" lon="9.493398121333467"><ele>553.3333333333334</ele><time>2026-04-04T08:50:10Z</time></trkpt><trkpt lat="44.30296066903163" lon="9.493268538782637"><ele>552.0</ele><time>2026-04-04T08:50:12Z</time></trkpt><trkpt lat="44.302956933887934" lon="9.49317635971745"><ele>547.8000000000001</ele><time>2026-04-04T08:50:14Z</time></trkpt><trkpt lat="44.30297504033002" lon="9.493034620005448"><ele>543.6</ele><time>2026-04-04T08:50:16Z</time></trkpt><trkpt lat="44.30300366384925" lon="9.492956060104458"><ele>539.4000000000001</ele><time>2026-04-04T08:50:28.001Z</time></trkpt><trkpt lat="44.303012735737155" lon="9.493070448079527"><ele>535.2</ele><time>2026-04-04T08:50:38.001Z</time></trkpt><trkpt lat="44.30296294655534" lon="9.493214008822848"><ele>531.0</ele><time>2026-04-04T08:50:41.001Z</time></trkpt><trkpt lat="44.30295058206372" lon="9.493350696078272"><ele>531.0</ele><time>2026-04-04T08:50:43.001Z</time></trkpt><trkpt lat="44.30300841524832" lon="9.493418749375172"><ele>531.0</ele><time>2026-04-04T08:50:45.001Z</time></trkpt><trkpt lat="44.30305750998984" lon="9.493515854596248"><ele>531.0</ele><time>2026-04-04T08:50:47.001Z</time></trkpt><trkpt lat="44.30307559065394" lon="9.493661771948188"><ele>531.0</ele><time>2026-04-04T08:50:49.001Z</time></trkpt><trkpt lat="44.303148425173035" lon="9.493755622497867"><ele>531.0</ele><time>2026-04-04T08:50:51.001Z</time></trkpt><trkpt lat="44.30321526838383" lon="9.493792726500688"><ele>531.0</ele><time>2026-04-04T08:50:53.001Z</time></trkpt><trkpt lat="44.30330816003292" lon="9.493811999987493"><ele>536.8</ele><time>2026-04-04T08:50:55.001Z</time></trkpt><trkpt lat="44.303436834027345" lon="9.493813751163499"><ele>542.6</ele><time>2026-04-04T08:50:57.001Z</time></trkpt><trkpt lat="44.303428559724594" lon="9.493974482015954"><ele>548.4</ele><time>2026-04-04T08:50:59.001Z</time></trkpt><trkpt lat="44.30340070918485" lon="9.494082263281607"><ele>554.2</ele><time>2026-04-04T08:51:01.001Z</time></trkpt><trkpt lat="44.3033444748093" lon="9.49418711007044"><ele>560.0</ele><time>2026-04-04T08:51:03.001Z</time></trkpt><trkpt lat="44.30329470773479" lon="9.49424437988501"><ele>560.0</ele><time>2026-04-04T08:51:04.001Z</time></trkpt><trkpt lat="44.30326455525834" lon="9.494326552332339"><ele>560.0</ele><time>2026-04-04T08:51:05.001Z</time></trkpt><trkpt lat="44.303246600717806" lon="9.494452109278367"><ele>560.0</ele><time>2026-04-04T08:51:07.001Z</time></trkpt><trkpt lat="44.30327560612254" lon="9.49459256975828"><ele>560.0</ele><time>2026-04-04T08:51:09.001Z</time></trkpt><trkpt lat="44.30334017333923" lon="9.494724630572456"><ele>560.0</ele><time>2026-04-04T08:51:10.001Z</time></trkpt><trkpt lat="44.303415339329185" lon="9.49484677604164"><ele>560.6</ele><time>2026-04-04T08:51:12.001Z</time></trkpt><trkpt lat="44.303456298643965" lon="9.494925251189798"><ele>561.2</ele><time>2026-04-04T08:51:13.001Z</time></trkpt><trkpt lat="44.30350667908706" lon="9.495044810466423"><ele>561.8</ele><time>2026-04-04T08:51:15.001Z</time></trkpt><trkpt lat="44.30353051753241" lon="9.495185033555876"><ele>562.4</ele><time>2026-04-04T08:51:17Z</time></trkpt><trkpt lat="44.303572047945224" lon="9.495336061235541"><ele>563.0</ele><time>2026-04-04T08:51:19Z</time></trkpt><trkpt lat="44.30361223185809" lon="9.4954836463025"><ele>563.6</ele><time>2026-04-04T08:51:21Z</time></trkpt><trkpt lat="44.30366667857329" lon="9.495578746045442"><ele>564.1999999999999</ele><time>2026-04-04T08:51:23Z</time></trkpt><trkpt lat="44.30370330146716" lon="9.495674997902785"><ele>564.8</ele><time>2026-04-04T08:51:25Z</time></trkpt><trkpt lat="44.30375800316199" lon="9.495807378377023"><ele>565.4</ele><time>2026-04-04T08:51:27Z</time></trkpt><trkpt lat="44.303784834274275" lon="9.495890478576065"><ele>566.0</ele><time>2026-04-04T08:51:28Z</time></trkpt><trkpt lat="44.303841450349225" lon="9.496023898832792"><ele>566.6</ele><time>2026-04-04T08:51:30Z</time></trkpt><trkpt lat="44.30391812081494" lon="9.49613119599563"><ele>567.2</ele><time>2026-04-04T08:51:32Z</time></trkpt><trkpt lat="44.3039856658308" lon="9.496233087557721"><ele>567.8</ele><time>2026-04-04T08:51:34Z</time></trkpt><trkpt lat="44.304063577748934" lon="9.496322049221103"><ele>568.4</ele><time>2026-04-04T08:51:36Z</time></trkpt><trkpt lat="44.30416797844333" lon="9.496406453442187"><ele>569.0</ele><time>2026-04-04T08:51:38Z</time></trkpt><trkpt lat="44.304211524484884" lon="9.49649019058818"><ele>572.6666666666666</ele><time>2026-04-04T08:51:39Z</time></trkpt><trkpt lat="44.30425492151149" lon="9.496568817695492"><ele>576.3333333333333</ele><time>2026-04-04T08:51:40Z</time></trkpt><trkpt lat="44.30432371945738" lon="9.49660716294487"><ele>580.0</ele><time>2026-04-04T08:51:41Z</time></trkpt><trkpt lat="44.30440238217837" lon="9.496645884805535"><ele>583.6666666666666</ele><time>2026-04-04T08:51:42Z</time></trkpt><trkpt lat="44.30447543698727" lon="9.49671949908654"><ele>587.3333333333334</ele><time>2026-04-04T08:51:44Z</time></trkpt><trkpt lat="44.304530375194354" lon="9.49687048238875"><ele>591.0</ele><time>2026-04-04T08:51:46Z</time></trkpt><trkpt lat="44.30455408611574" lon="9.496989968381417"><ele>592.0</ele><time>2026-04-04T08:51:48Z</time></trkpt><trkpt lat="44.30460331194267" lon="9.497093195494331"><ele>593.0</ele><time>2026-04-04T09:00:11Z</time></trkpt><trkpt lat="44.30464186147105" lon="9.497191698095799"><ele>594.0</ele><time>2026-04-04T09:00:14Z</time></trkpt><trkpt lat="44.30469392815247" lon="9.497259715498666"><ele>595.0</ele><time>2026-04-04T09:00:16Z</time></trkpt><trkpt lat="44.30474809533413" lon="9.497308247633478"><ele>596.0</ele><time>2026-04-04T09:00:18Z</time></trkpt><trkpt lat="44.30482980133412" lon="9.497361193225194"><ele>597.0</ele><time>2026-04-04T09:00:21Z</time></trkpt><trkpt lat="44.30488742524873" lon="9.497401675118661"><ele>597.0</ele><time>2026-04-04T09:00:23Z</time></trkpt><trkpt lat="44.30495365066759" lon="9.497445126862354"><ele>597.0</ele><time>2026-04-04T09:00:25Z</time></trkpt><trkpt lat="44.30501079040594" lon="9.497499323305409"><ele>597.0</ele><time>2026-04-04T09:00:27Z</time></trkpt><trkpt lat="44.30506591887501" lon="9.497604158834337"><ele>597.0</ele><time>2026-04-04T09:00:29Z</time></trkpt><trkpt lat="44.305098869891786" lon="9.497762503226289"><ele>597.0</ele><time>2026-04-04T09:00:31Z</time></trkpt><trkpt lat="44.30511261449133" lon="9.497861099164131"><ele>597.0</ele><time>2026-04-04T09:00:32Z</time></trkpt><trkpt lat="44.30513301013966" lon="9.497968071446019"><ele>598.3333333333334</ele><time>2026-04-04T09:00:33Z</time></trkpt><trkpt lat="44.30515675226129" lon="9.498059070063304"><ele>599.6666666666666</ele><time>2026-04-04T09:00:34Z</time></trkpt><trkpt lat="44.305201522097626" lon="9.498215258537492"><ele>601.0</ele><time>2026-04-04T09:00:36Z</time></trkpt><trkpt lat="44.30523586297789" lon="9.498309764176243"><ele>602.3333333333333</ele><time>2026-04-04T09:00:37Z</time></trkpt><trkpt lat="44.30527035858983" lon="9.498395537229765"><ele>603.6666666666666</ele><time>2026-04-04T09:00:38Z</time></trkpt><trkpt lat="44.305293202834605" lon="9.498542874845759"><ele>605.0</ele><time>2026-04-04T09:00:40Z</time></trkpt><trkpt lat="44.30529532555847" lon="9.498703149229367"><ele>606.5</ele><time>2026-04-04T09:00:42Z</time></trkpt><trkpt lat="44.30531712548468" lon="9.498816672758455"><ele>608.0</ele><time>2026-04-04T09:00:43Z</time></trkpt><trkpt lat="44.305362626152956" lon="9.498913820162118"><ele>609.5</ele><time>2026-04-04T09:00:44Z</time></trkpt><trkpt lat="44.30538477562355" lon="9.499019892029585"><ele>611.0</ele><time>2026-04-04T09:00:45Z</time></trkpt><trkpt lat="44.30542428425754" lon="9.499102881404474"><ele>612.5</ele><time>2026-04-04T09:00:46Z</time></trkpt><trkpt lat="44.30546019167184" lon="9.499190648963099"><ele>614.0</ele><time>2026-04-04T09:00:47Z</time></trkpt><trkpt lat="44.30553353905824" lon="9.49929285980442"><ele>614.0</ele><time>2026-04-04T09:00:49.001Z</time></trkpt><trkpt lat="44.305538534554785" lon="9.49938218698433"><ele>614.0</ele><time>2026-04-04T09:01:01.001Z</time></trkpt><trkpt lat="44.30554249234943" lon="9.499497177331559"><ele>614.0</ele><time>2026-04-04T09:01:03.001Z</time></trkpt><trkpt lat="44.30560827386001" lon="9.499524820757514"><ele>614.0</ele><time>2026-04-04T09:01:14.001Z</time></trkpt><trkpt lat="44.30567414770624" lon="9.499566603124572"><ele>614.0</ele><time>2026-04-04T09:01:18.001Z</time></trkpt><trkpt lat="44.30575349813272" lon="9.499610312638707"><ele>614.0</ele><time>2026-04-04T09:01:21.001Z</time></trkpt><trkpt lat="44.30583321161426" lon="9.499570758529003"><ele>610.6666666666666</ele><time>2026-04-04T09:01:23.001Z</time></trkpt><trkpt lat="44.305896029927474" lon="9.49948429858262"><ele>607.3333333333333</ele><time>2026-04-04T09:01:25.001Z</time></trkpt><trkpt lat="44.305919635416835" lon="9.499352482206772"><ele>604.0</ele><time>2026-04-04T09:01:27.001Z</time></trkpt><trkpt lat="44.30596666416411" lon="9.499244230067186"><ele>600.6666666666666</ele><time>2026-04-04T09:01:29.001Z</time></trkpt><trkpt lat="44.305992450845636" lon="9.499151983181598"><ele>597.3333333333334</ele><time>2026-04-04T09:01:31.001Z</time></trkpt><trkpt lat="44.30601572676263" lon="9.499034199633467"><ele>594.0</ele><time>2026-04-04T09:01:33.001Z</time></trkpt><trkpt lat="44.30600632761526" lon="9.498936840752407"><ele>594.0</ele><time>2026-04-04T09:01:35.001Z</time></trkpt><trkpt lat="44.30601680461394" lon="9.49880997600308"><ele>594.0</ele><time>2026-04-04T09:01:37.001Z</time></trkpt><trkpt lat="44.30608672381985" lon="9.498676296134002"><ele>594.0</ele><time>2026-04-04T09:01:40.001Z</time></trkpt><trkpt lat="44.3061933400072" lon="9.498712365479104"><ele>594.0</ele><time>2026-04-04T09:01:42.001Z</time></trkpt><trkpt lat="44.30626156063645" lon="9.498829759536694"><ele>594.0</ele><time>2026-04-04T09:01:44.001Z</time></trkpt><trkpt lat="44.30627819085567" lon="9.498964097311212"><ele>594.0</ele><time>2026-04-04T09:01:52Z</time></trkpt><trkpt lat="44.30631397485202" lon="9.499047458732079"><ele>594.0</ele><time>2026-04-04T09:01:56Z</time></trkpt><trkpt lat="44.30637325810293" lon="9.499079888603289"><ele>594.0</ele><time>2026-04-04T09:02:05Z</time></trkpt><trkpt lat="44.30644531710723" lon="9.499112308572698"><ele>589.0</ele><time>2026-04-04T09:02:07Z</time></trkpt><trkpt lat="44.306370710213216" lon="9.499137892031756"><ele>594.0</ele><time>2026-04-04T09:02:35Z</time></trkpt></trkseg><trkseg><trkpt lat="44.32394882949222" lon="9.502710251407283"><ele>908.0000000000001</ele><time>2026-04-04T09:55:41.001Z</time></trkpt><trkpt lat="44.32401065628719" lon="9.502646054366368"><ele>908.0</ele><time>2026-04-04T09:56:04Z</time></trkpt><trkpt lat="44.324105986898964" lon="9.502634429353387"><ele>908.0</ele><time>2026-04-04T09:56:06Z</time></trkpt><trkpt lat="44.32416828928077" lon="9.50267533075323"><ele>908.0</ele><time>2026-04-04T09:56:08Z</time></trkpt><trkpt lat="44.3242635034879" lon="9.50266948315284"><ele>908.0000000000001</ele><time>2026-04-04T09:56:10Z</time></trkpt><trkpt lat="44.32435535796237" lon="9.502733669688674"><ele>908.0</ele><time>2026-04-04T09:56:12Z</time></trkpt><trkpt lat="44.3244520511698" lon="9.502720517079727"><ele>908.0</ele><time>2026-04-04T09:56:14Z</time></trkpt><trkpt lat="44.324526641182395" lon="9.502679688579551"><ele>908.0</ele><time>2026-04-04T09:56:16Z</time></trkpt><trkpt lat="44.32460537934349" lon="9.502523180870522"><ele>908.0</ele><time>2026-04-04T09:56:18Z</time></trkpt><trkpt lat="44.32464148163975" lon="9.502446304149267"><ele>908.0</ele><time>2026-04-04T09:56:19Z</time></trkpt><trkpt lat="44.3247255261033" lon="9.502334525122874"><ele>908.0</ele><time>2026-04-04T09:56:21Z</time></trkpt><trkpt lat="44.32476684445732" lon="9.502236342423654"><ele>907.8</ele><time>2026-04-04T09:56:25Z</time></trkpt><trkpt lat="44.32480900222933" lon="9.502139114047319"><ele>907.5999999999999</ele><time>2026-04-04T09:56:30Z</time></trkpt><trkpt lat="44.32490696884363" lon="9.502189002942552"><ele>907.4000000000001</ele><time>2026-04-04T09:56:34Z</time></trkpt><trkpt lat="44.32499117232587" lon="9.502253733957746"><ele>907.2</ele><time>2026-04-04T09:56:36Z</time></trkpt><trkpt lat="44.32509906720117" lon="9.50229949199193"><ele>907.0</ele><time>2026-04-04T09:56:38Z</time></trkpt><trkpt lat="44.32520451756269" lon="9.502340485439959"><ele>907.0</ele><time>2026-04-04T09:56:40Z</time></trkpt><trkpt lat="44.325267054710395" lon="9.502362577283685"><ele>907.0</ele><time>2026-04-04T09:56:41Z</time></trkpt><trkpt lat="44.325371616726855" lon="9.502370284393058"><ele>907.0</ele><time>2026-04-04T09:56:43Z</time></trkpt><trkpt lat="44.32548344504961" lon="9.502365336002642"><ele>907.0</ele><time>2026-04-04T09:56:45Z</time></trkpt><trkpt lat="44.32561280670099" lon="9.502338299965112"><ele>907.0</ele><time>2026-04-04T09:56:47Z</time></trkpt><trkpt lat="44.32568760447969" lon="9.502302445175639"><ele>907.6666666666666</ele><time>2026-04-04T09:56:48Z</time></trkpt><trkpt lat="44.325757520363695" lon="9.502271622956476"><ele>908.3333333333333</ele><time>2026-04-04T09:56:49Z</time></trkpt><trkpt lat="44.325838886726416" lon="9.502216097277651"><ele>909.0</ele><time>2026-04-04T09:56:50Z</time></trkpt><trkpt lat="44.32591928063115" lon="9.502169645548488"><ele>909.6666666666667</ele><time>2026-04-04T09:56:51Z</time></trkpt><trkpt lat="44.32599437449999" lon="9.502130486804344"><ele>910.3333333333334</ele><time>2026-04-04T09:56:52Z</time></trkpt><trkpt lat="44.32606836582149" lon="9.502099481864768"><ele>911.0</ele><time>2026-04-04T09:56:53Z</time></trkpt><trkpt lat="44.326202440570526" lon="9.502079091031277"><ele>913.1666666666667</ele><time>2026-04-04T09:56:55Z</time></trkpt><trkpt lat="44.326281523542015" lon="9.502051054933668"><ele>915.3333333333334</ele><time>2026-04-04T09:56:56Z</time></trkpt><trkpt lat="44.326377576700004" lon="9.501963737433105"><ele>917.5</ele><time>2026-04-04T09:56:58Z</time></trkpt><trkpt lat="44.32642603188012" lon="9.501894694585609"><ele>919.6666666666667</ele><time>2026-04-04T09:56:59Z</time></trkpt><trkpt lat="44.32647947198769" lon="9.501825933955509"><ele>921.8333333333334</ele><time>2026-04-04T09:57:00Z</time></trkpt><trkpt lat="44.326538919609675" lon="9.501743368126956"><ele>924.0</ele><time>2026-04-04T09:57:01Z</time></trkpt><trkpt lat="44.32660761548529" lon="9.501680185355612"><ele>924.0</ele><time>2026-04-04T09:57:02Z</time></trkpt><trkpt lat="44.32667987474574" lon="9.501632410021301"><ele>924.0</ele><time>2026-04-04T09:57:03Z</time></trkpt><trkpt lat="44.32675890689689" lon="9.501582019018016"><ele>924.0</ele><time>2026-04-04T09:57:04Z</time></trkpt><trkpt lat="44.32683592697481" lon="9.501520719834108"><ele>924.0</ele><time>2026-04-04T09:57:05Z</time></trkpt><trkpt lat="44.32690109539529" lon="9.501458826001105"><ele>924.0</ele><time>2026-04-04T09:57:06Z</time></trkpt><trkpt lat="44.32697075103386" lon="9.501417452945462"><ele>924.0</ele><time>2026-04-04T09:57:07Z</time></trkpt><trkpt lat="44.32704840544064" lon="9.501384798525699"><ele>924.0</ele><time>2026-04-04T09:57:08Z</time></trkpt><trkpt lat="44.3271279707699" lon="9.501377477030447"><ele>924.0</ele><time>2026-04-04T09:57:09Z</time></trkpt><trkpt lat="44.3272095562792" lon="9.501383416110555"><ele>924.0</ele><time>2026-04-04T09:57:10Z</time></trkpt><trkpt lat="44.32728550900435" lon="9.501365926278158"><ele>924.0</ele><time>2026-04-04T09:57:11Z</time></trkpt><trkpt lat="44.32735544155544" lon="9.501342190008092"><ele>924.0</ele><time>2026-04-04T09:57:12Z</time></trkpt><trkpt lat="44.3274326866542" lon="9.50128331375305"><ele>924.0</ele><time>2026-04-04T09:57:13.001Z</time></trkpt><trkpt lat="44.32750686378837" lon="9.50120836823762"><ele>927.3333333333334</ele><time>2026-04-04T09:57:14.001Z</time></trkpt><trkpt lat="44.32758808492521" lon="9.501134095696933"><ele>930.6666666666667</ele><time>2026-04-04T09:57:15.001Z</time></trkpt><trkpt lat="44.32765337536851" lon="9.50107016303735"><ele>934.0</ele><time>2026-04-04T09:57:16.001Z</time></trkpt><trkpt lat="44.327730196552466" lon="9.501042478896379"><ele>937.3333333333334</ele><time>2026-04-04T09:57:17.001Z</time></trkpt><trkpt lat="44.32781408450596" lon="9.500998754336694"><ele>940.6666666666667</ele><time>2026-04-04T09:57:18.001Z</time></trkpt><trkpt lat="44.32788811201543" lon="9.500952889776034"><ele>944.0</ele><time>2026-04-04T09:57:19.001Z</time></trkpt><trkpt lat="44.32797209568918" lon="9.500890861376199"><ele>944.0000000000001</ele><time>2026-04-04T09:57:20.001Z</time></trkpt><trkpt lat="44.32805019714196" lon="9.500855882216907"><ele>944.0</ele><time>2026-04-04T09:57:21.001Z</time></trkpt><trkpt lat="44.32812082700405" lon="9.500844957560513"><ele>944.0</ele><time>2026-04-04T09:57:22.001Z</time></trkpt><trkpt lat="44.328195493736494" lon="9.500849447194849"><ele>944.0</ele><time>2026-04-04T09:57:23.001Z</time></trkpt><trkpt lat="44.32826967565819" lon="9.500862065614607"><ele>944.0000000000001</ele><time>2026-04-04T09:57:24.001Z</time></trkpt><trkpt lat="44.328344585283396" lon="9.500849350134477"><ele>944.0</ele><time>2026-04-04T09:57:25.001Z</time></trkpt><trkpt lat="44.328430151806515" lon="9.500818648766002"><ele>944.1666666666667</ele><time>2026-04-04T09:57:26.001Z</time></trkpt><trkpt lat="44.32851566593695" lon="9.500805125085607"><ele>944.3333333333334</ele><time>2026-04-04T09:57:27.001Z</time></trkpt><trkpt lat="44.328585936598294" lon="9.500819720338976"><ele>944.5</ele><time>2026-04-04T09:57:28.001Z</time></trkpt><trkpt lat="44.328695327128656" lon="9.500865480371193"><ele>944.6666666666667</ele><time>2026-04-04T09:57:31.001Z</time></trkpt><trkpt lat="44.32875714847997" lon="9.500886526477165"><ele>944.8333333333334</ele><time>2026-04-04T09:57:32.001Z</time></trkpt><trkpt lat="44.32886795138827" lon="9.500864101942097"><ele>945.0</ele><time>2026-04-04T09:57:34Z</time></trkpt><trkpt lat="44.32896771122495" lon="9.500802707775401"><ele>945.0</ele><time>2026-04-04T09:57:36Z</time></trkpt><trkpt lat="44.32907467737773" lon="9.500760242727871"><ele>945.0</ele><time>2026-04-04T09:57:38Z</time></trkpt><trkpt lat="44.32913731197329" lon="9.500696533002536"><ele>945.0</ele><time>2026-04-04T09:57:42Z</time></trkpt><trkpt lat="44.32920730980891" lon="9.500736922576094"><ele>945.0</ele><time>2026-04-04T09:57:46Z</time></trkpt><trkpt lat="44.329334619237144" lon="9.500761409701582"><ele>945.0</ele><time>2026-04-04T09:57:49Z</time></trkpt><trkpt lat="44.329414713444194" lon="9.500746688532667"><ele>945.0</ele><time>2026-04-04T09:57:50Z</time></trkpt><trkpt lat="44.3294930840344" lon="9.500732541603996"><ele>945.0</ele><time>2026-04-04T09:57:51Z</time></trkpt><trkpt lat="44.329574311534245" lon="9.500677032841653"><ele>945.0</ele><time>2026-04-04T09:57:52Z</time></trkpt><trkpt lat="44.32966875542316" lon="9.500616274967516"><ele>945.0</ele><time>2026-04-04T09:57:53Z</time></trkpt><trkpt lat="44.32974930309348" lon="9.500583923753155"><ele>945.0</ele><time>2026-04-04T09:57:54Z</time></trkpt><trkpt lat="44.32980782166207" lon="9.500545562618962"><ele>945.0</ele><time>2026-04-04T09:57:55Z</time></trkpt><trkpt lat="44.32988814744892" lon="9.50053159659555"><ele>944.1666666666666</ele><time>2026-04-04T09:57:56Z</time></trkpt><trkpt lat="44.32995112055208" lon="9.500471238473018"><ele>943.3333333333333</ele><time>2026-04-04T09:57:57Z</time></trkpt><trkpt lat="44.33002416771758" lon="9.500419349871933"><ele>942.5</ele><time>2026-04-04T09:57:58Z</time></trkpt><trkpt lat="44.330088162778274" lon="9.500380871164436"><ele>941.6666666666666</ele><time>2026-04-04T09:57:59Z</time></trkpt><trkpt lat="44.330188103415615" lon="9.500359138250138"><ele>940.8333333333333</ele><time>2026-04-04T09:58:01Z</time></trkpt><trkpt lat="44.33025715418162" lon="9.50036259952659"><ele>940.0</ele><time>2026-04-04T09:58:02Z</time></trkpt><trkpt lat="44.33033778559699" lon="9.500355540220674"><ele>939.9999999999999</ele><time>2026-04-04T09:58:03Z</time></trkpt><trkpt lat="44.33040458654386" lon="9.500334467397249"><ele>940.0</ele><time>2026-04-04T09:58:04Z</time></trkpt><trkpt lat="44.33046934369775" lon="9.500301121496623"><ele>940.0</ele><time>2026-04-04T09:58:05Z</time></trkpt><trkpt lat="44.330553904146846" lon="9.500219468708913"><ele>940.0</ele><time>2026-04-04T09:58:07Z</time></trkpt><trkpt lat="44.330625451673555" lon="9.500206753761592"><ele>939.9999999999999</ele><time>2026-04-04T09:58:08Z</time></trkpt><trkpt lat="44.33070243771401" lon="9.50023501138082"><ele>940.0</ele><time>2026-04-04T09:58:09Z</time></trkpt><trkpt lat="44.330777412697046" lon="9.50027781239325"><ele>940.2</ele><time>2026-04-04T09:58:10Z</time></trkpt><trkpt lat="44.330850608686774" lon="9.500309874533132"><ele>940.4</ele><time>2026-04-04T09:58:11Z</time></trkpt><trkpt lat="44.33094035182219" lon="9.500354818373868"><ele>940.5999999999999</ele><time>2026-04-04T09:58:12Z</time></trkpt><trkpt lat="44.331030790678035" lon="9.500400916203922"><ele>940.8</ele><time>2026-04-04T09:58:13Z</time></trkpt><trkpt lat="44.33111844859359" lon="9.50043871605167"><ele>941.0</ele><time>2026-04-04T09:58:14Z</time></trkpt><trkpt lat="44.331237560445565" lon="9.500479276888726"><ele>942.6666666666667</ele><time>2026-04-04T09:58:16Z</time></trkpt><trkpt lat="44.331327208732844" lon="9.500498553151685"><ele>944.3333333333334</ele><time>2026-04-04T09:58:17Z</time></trkpt><trkpt lat="44.33139197686697" lon="9.500503862231001"><ele>946.0</ele><time>2026-04-04T09:58:18Z</time></trkpt><trkpt lat="44.33148966683664" lon="9.500506529373677"><ele>947.6666666666667</ele><time>2026-04-04T09:58:20Z</time></trkpt><trkpt lat="44.331560992300815" lon="9.500553782025493"><ele>949.3333333333334</ele><time>2026-04-04T09:58:22Z</time></trkpt><trkpt lat="44.33164229580272" lon="9.500646196928685"><ele>951.0</ele><time>2026-04-04T09:58:24Z</time></trkpt><trkpt lat="44.331686757309" lon="9.50071390982805"><ele>951.0</ele><time>2026-04-04T09:58:25Z</time></trkpt><trkpt lat="44.33177733089981" lon="9.500800156220427"><ele>950.9999999999999</ele><time>2026-04-04T09:58:27Z</time></trkpt><trkpt lat="44.33183855223472" lon="9.500826754953376"><ele>950.9999999999999</ele><time>2026-04-04T09:58:28Z</time></trkpt><trkpt lat="44.33194489040797" lon="9.500794246441073"><ele>951.0</ele><time>2026-04-04T09:58:30Z</time></trkpt><trkpt lat="44.33205338046836" lon="9.50080716076695"><ele>951.0</ele><time>2026-04-04T09:58:32Z</time></trkpt><trkpt lat="44.33212259975149" lon="9.500834559323545"><ele>951.0</ele><time>2026-04-04T09:58:33Z</time></trkpt><trkpt lat="44.332203377069746" lon="9.500963122392974"><ele>950.9999999999999</ele><time>2026-04-04T09:58:35Z</time></trkpt><trkpt lat="44.33221850424207" lon="9.501126893554057"><ele>950.9999999999999</ele><time>2026-04-04T09:58:37Z</time></trkpt><trkpt lat="44.332248807975404" lon="9.501284420319848"><ele>951.0</ele><time>2026-04-04T09:58:39Z</time></trkpt><trkpt lat="44.332311608950945" lon="9.501378454203277"><ele>951.0</ele><time>2026-04-04T09:59:01.001Z</time></trkpt><trkpt lat="44.33237487514936" lon="9.50146940043765"><ele>951.3333333333334</ele><time>2026-04-04T09:59:02.001Z</time></trkpt><trkpt lat="44.33238384154736" lon="9.501587281840049"><ele>951.6666666666667</ele><time>2026-04-04T09:59:03.001Z</time></trkpt><trkpt lat="44.33239760986197" lon="9.501675208876506"><ele>952.0</ele><time>2026-04-04T09:59:04.001Z</time></trkpt><trkpt lat="44.332490542726106" lon="9.50162492026356"><ele>952.3333333333334</ele><time>2026-04-04T09:59:05.001Z</time></trkpt><trkpt lat="44.3326023576849" lon="9.501648480782082"><ele>952.6666666666667</ele><time>2026-04-04T09:59:07.001Z</time></trkpt><trkpt lat="44.33266427898704" lon="9.50167972878158"><ele>953.0</ele><time>2026-04-04T09:59:09.001Z</time></trkpt><trkpt lat="44.3327836803607" lon="9.501593950411497"><ele>953.0000000000001</ele><time>2026-04-04T09:59:11.001Z</time></trkpt><trkpt lat="44.33286668900081" lon="9.501572965152075"><ele>953.0</ele><time>2026-04-04T09:59:12.001Z</time></trkpt><trkpt lat="44.332951514149634" lon="9.501564891736193"><ele>953.0</ele><time>2026-04-04T09:59:13.001Z</time></trkpt><trkpt lat="44.333027986038815" lon="9.501537988005147"><ele>953.0</ele><time>2026-04-04T09:59:14.001Z</time></trkpt><trkpt lat="44.33310115652583" lon="9.50151140841174"><ele>953.0000000000001</ele><time>2026-04-04T09:59:15.001Z</time></trkpt><trkpt lat="44.33321461953437" lon="9.501491194378785"><ele>953.0</ele><time>2026-04-04T09:59:17.001Z</time></trkpt><trkpt lat="44.333253820856235" lon="9.501561804952283"><ele>955.0</ele><time>2026-04-04T09:59:18.001Z</time></trkpt><trkpt lat="44.33329431588376" lon="9.501634949058415"><ele>957.0</ele><time>2026-04-04T09:59:19.001Z</time></trkpt><trkpt lat="44.33336102083365" lon="9.501774937678775"><ele>959.0</ele><time>2026-04-04T09:59:21.001Z</time></trkpt><trkpt lat="44.333381971960485" lon="9.501858778336707"><ele>961.0</ele><time>2026-04-04T09:59:22.001Z</time></trkpt><trkpt lat="44.3334547067814" lon="9.50194745705037"><ele>963.0</ele><time>2026-04-04T09:59:24.001Z</time></trkpt><trkpt lat="44.333566503630436" lon="9.502028964647936"><ele>963.0</ele><time>2026-04-04T09:59:26.001Z</time></trkpt><trkpt lat="44.333630185192504" lon="9.502064146523002"><ele>963.0</ele><time>2026-04-04T09:59:27.001Z</time></trkpt><trkpt lat="44.3336696499497" lon="9.502134539837572"><ele>963.0</ele><time>2026-04-04T09:59:28.001Z</time></trkpt><trkpt lat="44.33367593264034" lon="9.502290101718998"><ele>963.0</ele><time>2026-04-04T09:59:30.001Z</time></trkpt><trkpt lat="44.333702653543234" lon="9.502394286447254"><ele>963.0</ele><time>2026-04-04T09:59:32.001Z</time></trkpt><trkpt lat="44.33376795254371" lon="9.502483250043598"><ele>963.0</ele><time>2026-04-04T09:59:34.001Z</time></trkpt><trkpt lat="44.333882379210166" lon="9.502549728376579"><ele>963.3333333333334</ele><time>2026-04-04T09:59:36.001Z</time></trkpt><trkpt lat="44.333990859914174" lon="9.502576041556015"><ele>963.6666666666667</ele><time>2026-04-04T09:59:38.001Z</time></trkpt><trkpt lat="44.3340640037205" lon="9.502588940949861"><ele>964.0</ele><time>2026-04-04T09:59:39.001Z</time></trkpt><trkpt lat="44.33418088769435" lon="9.502540463754338"><ele>964.3333333333334</ele><time>2026-04-04T09:59:41Z</time></trkpt><trkpt lat="44.33424671609898" lon="9.502518362586484"><ele>964.6666666666667</ele><time>2026-04-04T09:59:42Z</time></trkpt><trkpt lat="44.334321829374936" lon="9.502515821084534"><ele>965.0</ele><time>2026-04-04T09:59:43Z</time></trkpt><trkpt lat="44.33438686184036" lon="9.502498464390015"><ele>965.0000000000001</ele><time>2026-04-04T09:59:44Z</time></trkpt><trkpt lat="44.334474537439526" lon="9.502502183818436"><ele>965.0</ele><time>2026-04-04T09:59:46Z</time></trkpt><trkpt lat="44.33453104895298" lon="9.50255460890413"><ele>965.0</ele><time>2026-04-04T09:59:47Z</time></trkpt><trkpt lat="44.334569499569334" lon="9.502639464474363"><ele>965.0</ele><time>2026-04-04T09:59:48Z</time></trkpt><trkpt lat="44.33458324518513" lon="9.502741929559615"><ele>965.0000000000001</ele><time>2026-04-04T09:59:49Z</time></trkpt><trkpt lat="44.33461111085498" lon="9.502842190376548"><ele>965.0</ele><time>2026-04-04T09:59:50Z</time></trkpt><trkpt lat="44.3346518128505" lon="9.50292711999164"><ele>963.3333333333334</ele><time>2026-04-04T09:59:51Z</time></trkpt><trkpt lat="44.33472630144447" lon="9.503056908243233"><ele>961.6666666666667</ele><time>2026-04-04T09:59:53Z</time></trkpt><trkpt lat="44.33478911570746" lon="9.503095160941077"><ele>960.0</ele><time>2026-04-04T09:59:54Z</time></trkpt><trkpt lat="44.334852744663614" lon="9.503140670290126"><ele>958.3333333333333</ele><time>2026-04-04T09:59:55Z</time></trkpt><trkpt lat="44.33491487304089" lon="9.503177672716829"><ele>956.6666666666666</ele><time>2026-04-04T09:59:56Z</time></trkpt><trkpt lat="44.33497927515277" lon="9.503207535242398"><ele>955.0</ele><time>2026-04-04T09:59:57Z</time></trkpt><trkpt lat="44.33507611736212" lon="9.503220800653922"><ele>955.0</ele><time>2026-04-04T09:59:59Z</time></trkpt><trkpt lat="44.335182390709846" lon="9.503206016441725"><ele>955.0</ele><time>2026-04-04T10:00:01Z</time></trkpt><trkpt lat="44.33529494591282" lon="9.503130081282238"><ele>955.0</ele><time>2026-04-04T10:00:03Z</time></trkpt><trkpt lat="44.3353645283128" lon="9.50307223283355"><ele>955.0</ele><time>2026-04-04T10:00:04Z</time></trkpt><trkpt lat="44.33543312558085" lon="9.503018320543832"><ele>955.0</ele><time>2026-04-04T10:00:05Z</time></trkpt><trkpt lat="44.33550261692642" lon="9.50295542893072"><ele>957.0</ele><time>2026-04-04T10:00:07Z</time></trkpt><trkpt lat="44.3356012317629" lon="9.503004747652096"><ele>959.0</ele><time>2026-04-04T10:00:10Z</time></trkpt><trkpt lat="44.33566537048071" lon="9.503160899501873"><ele>961.0</ele><time>2026-04-04T10:00:12Z</time></trkpt><trkpt lat="44.33569426551553" lon="9.503255357632897"><ele>963.0</ele><time>2026-04-04T10:00:13Z</time></trkpt><trkpt lat="44.335722351496" lon="9.50334447855039"><ele>965.0</ele><time>2026-04-04T10:00:14Z</time></trkpt><trkpt lat="44.335775760911474" lon="9.503478455702593"><ele>965.0000000000001</ele><time>2026-04-04T10:00:16Z</time></trkpt><trkpt lat="44.33582874929051" lon="9.50361188165513"><ele>965.0</ele><time>2026-04-04T10:00:18Z</time></trkpt><trkpt lat="44.335855071067016" lon="9.50371882551321"><ele>965.0</ele><time>2026-04-04T10:00:22Z</time></trkpt><trkpt lat="44.33591464622172" lon="9.50381270572409"><ele>965.0</ele><time>2026-04-04T10:00:25Z</time></trkpt><trkpt lat="44.33599385123413" lon="9.503856270639409"><ele>965.0000000000001</ele><time>2026-04-04T10:00:28Z</time></trkpt><trkpt lat="44.33606137869727" lon="9.503885781089421"><ele>965.0</ele><time>2026-04-04T10:00:31Z</time></trkpt><trkpt lat="44.33612736885623" lon="9.503877844408992"><ele>965.0000000000001</ele><time>2026-04-04T10:00:33Z</time></trkpt><trkpt lat="44.33619973334725" lon="9.503844911736278"><ele>965.0</ele><time>2026-04-04T10:00:35Z</time></trkpt><trkpt lat="44.33625532677252" lon="9.5037980354798"><ele>965.0</ele><time>2026-04-04T10:00:37Z</time></trkpt><trkpt lat="44.33630076736583" lon="9.503716227108697"><ele>965.0</ele><time>2026-04-04T10:00:39Z</time></trkpt><trkpt lat="44.336359561911166" lon="9.503610599341329"><ele>965.0000000000001</ele><time>2026-04-04T10:00:41Z</time></trkpt><trkpt lat="44.33643325499983" lon="9.50357467243166"><ele>965.0</ele><time>2026-04-04T10:00:43Z</time></trkpt><trkpt lat="44.33650235843174" lon="9.503506899091168"><ele>965.4</ele><time>2026-04-04T10:00:51Z</time></trkpt><trkpt lat="44.3365657462232" lon="9.503446834465873"><ele>965.8</ele><time>2026-04-04T10:00:53Z</time></trkpt><trkpt lat="44.3366407916248" lon="9.50353152412505"><ele>966.2</ele><time>2026-04-04T10:00:55Z</time></trkpt><trkpt lat="44.336714539222704" lon="9.503546567942463"><ele>966.6</ele><time>2026-04-04T10:00:57Z</time></trkpt><trkpt lat="44.336746349241935" lon="9.503661330731768"><ele>967.0</ele><time>2026-04-04T10:01:00Z</time></trkpt><trkpt lat="44.336803229093576" lon="9.503805023744642"><ele>961.2</ele><time>2026-04-04T10:01:34.001Z</time></trkpt><trkpt lat="44.33686491576584" lon="9.50389316712136"><ele>955.4000000000001</ele><time>2026-04-04T10:01:50Z</time></trkpt><trkpt lat="44.33694886691065" lon="9.50401387068336"><ele>949.5999999999999</ele><time>2026-04-04T10:01:52Z</time></trkpt><trkpt lat="44.33699803893333" lon="9.504086656508452"><ele>943.8</ele><time>2026-04-04T10:01:53Z</time></trkpt><trkpt lat="44.33709344408898" lon="9.504169455867725"><ele>938.0</ele><time>2026-04-04T10:01:55Z</time></trkpt><trkpt lat="44.33716264657949" lon="9.504250751971759"><ele>942.0000000000001</ele><time>2026-04-04T10:01:57Z</time></trkpt><trkpt lat="44.33724438594886" lon="9.504328100018562"><ele>946.0</ele><time>2026-04-04T10:01:59Z</time></trkpt><trkpt lat="44.337348161022334" lon="9.504379332387598"><ele>950.0</ele><time>2026-04-04T10:02:01Z</time></trkpt><trkpt lat="44.33741023275839" lon="9.504413709942122"><ele>954.0</ele><time>2026-04-04T10:02:02Z</time></trkpt><trkpt lat="44.33746294139276" lon="9.50446875071669"><ele>958.0000000000001</ele><time>2026-04-04T10:02:03Z</time></trkpt><trkpt lat="44.3375434104941" lon="9.504536762078121"><ele>962.0</ele><time>2026-04-04T10:02:05Z</time></trkpt><trkpt lat="44.33760579541706" lon="9.504557304892105"><ele>962.0</ele><time>2026-04-04T10:02:07Z</time></trkpt><trkpt lat="44.33771234874543" lon="9.5044691306839"><ele>962.0</ele><time>2026-04-04T10:02:09Z</time></trkpt><trkpt lat="44.33782729693572" lon="9.504399268619895"><ele>962.0</ele><time>2026-04-04T10:02:11Z</time></trkpt><trkpt lat="44.33792524532558" lon="9.504341617183083"><ele>962.0</ele><time>2026-04-04T10:02:13Z</time></trkpt><trkpt lat="44.3379820756355" lon="9.50429503946217"><ele>962.0</ele><time>2026-04-04T10:02:20Z</time></trkpt><trkpt lat="44.338061051220485" lon="9.504189003820661"><ele>960.0</ele><time>2026-04-04T10:02:24Z</time></trkpt><trkpt lat="44.33810655174283" lon="9.504110790895956"><ele>958.0</ele><time>2026-04-04T10:02:26Z</time></trkpt><trkpt lat="44.33819371804038" lon="9.503992456270504"><ele>956.0</ele><time>2026-04-04T10:02:27Z</time></trkpt><trkpt lat="44.33826415411377" lon="9.503889930278827"><ele>954.0</ele><time>2026-04-04T10:02:29Z</time></trkpt><trkpt lat="44.33830737275022" lon="9.503750673482875"><ele>952.0</ele><time>2026-04-04T10:02:31Z</time></trkpt><trkpt lat="44.338332942473336" lon="9.503639591334185"><ele>951.9999999999999</ele><time>2026-04-04T10:02:33Z</time></trkpt><trkpt lat="44.33840274884982" lon="9.503579903089825"><ele>952.0</ele><time>2026-04-04T10:02:35Z</time></trkpt><trkpt lat="44.33846279828141" lon="9.503620084438321"><ele>952.0</ele><time>2026-04-04T10:02:36Z</time></trkpt><trkpt lat="44.33853195948438" lon="9.503693886311442"><ele>952.0</ele><time>2026-04-04T10:02:37Z</time></trkpt><trkpt lat="44.338616733477444" lon="9.50379221007093"><ele>951.9999999999999</ele><time>2026-04-04T10:02:39Z</time></trkpt><trkpt lat="44.3387051911414" lon="9.503863275290776"><ele>952.0</ele><time>2026-04-04T10:02:41Z</time></trkpt><trkpt lat="44.33881955856368" lon="9.503846476561977"><ele>951.6666666666666</ele><time>2026-04-04T10:02:43Z</time></trkpt><trkpt lat="44.33888572217088" lon="9.5038117994894"><ele>951.3333333333333</ele><time>2026-04-04T10:02:44Z</time></trkpt><trkpt lat="44.338982824422125" lon="9.503733160691343"><ele>951.0</ele><time>2026-04-04T10:02:46Z</time></trkpt><trkpt lat="44.33904120515069" lon="9.503663678337428"><ele>950.6666666666667</ele><time>2026-04-04T10:02:47Z</time></trkpt><trkpt lat="44.339135746148216" lon="9.503725421010962"><ele>950.3333333333334</ele><time>2026-04-04T10:02:50Z</time></trkpt><trkpt lat="44.339198774504965" lon="9.503759604793213"><ele>950.0</ele><time>2026-04-04T10:02:51Z</time></trkpt><trkpt lat="44.339265295656375" lon="9.503809314111678"><ele>950.0</ele><time>2026-04-04T10:02:52Z</time></trkpt><trkpt lat="44.33935910681644" lon="9.503909440375987"><ele>950.0</ele><time>2026-04-04T10:02:54Z</time></trkpt><trkpt lat="44.33945919684522" lon="9.503928297759302"><ele>950.0</ele><time>2026-04-04T10:02:56Z</time></trkpt><trkpt lat="44.339567775361346" lon="9.503852138754466"><ele>950.0</ele><time>2026-04-04T10:02:58Z</time></trkpt><trkpt lat="44.33970952741634" lon="9.503745337244059"><ele>951.6666666666667</ele><time>2026-04-04T10:03:00Z</time></trkpt><trkpt lat="44.33978400456468" lon="9.503711414381984"><ele>953.3333333333334</ele><time>2026-04-04T10:03:01Z</time></trkpt><trkpt lat="44.33985742777966" lon="9.503659328552812"><ele>955.0</ele><time>2026-04-04T10:03:02Z</time></trkpt><trkpt lat="44.33993290443858" lon="9.50363327679353"><ele>956.6666666666667</ele><time>2026-04-04T10:03:03Z</time></trkpt><trkpt lat="44.3399977935069" lon="9.503628820338403"><ele>958.3333333333334</ele><time>2026-04-04T10:03:04Z</time></trkpt><trkpt lat="44.33985519579735" lon="9.503649037721125"><ele>960.0</ele><time>2026-04-04T10:03:14Z</time></trkpt><trkpt lat="44.33976090945545" lon="9.503698785029469"><ele>958.3333333333334</ele><time>2026-04-04T10:03:16Z</time></trkpt><trkpt lat="44.33969643702598" lon="9.503747272364912"><ele>956.6666666666667</ele><time>2026-04-04T10:03:17Z</time></trkpt><trkpt lat="44.33962463611616" lon="9.503787694331931"><ele>955.0</ele><time>2026-04-04T10:03:18Z</time></trkpt><trkpt lat="44.33956960794899" lon="9.503837150894372"><ele>953.3333333333334</ele><time>2026-04-04T10:03:19Z</time></trkpt><trkpt lat="44.33945985869297" lon="9.503897763629368"><ele>951.6666666666667</ele><time>2026-04-04T10:03:21Z</time></trkpt><trkpt lat="44.339391781053585" lon="9.50390806051681"><ele>950.0</ele><time>2026-04-04T10:03:23Z</time></trkpt><trkpt lat="44.33931626220743" lon="9.503846130794345"><ele>950.0</ele><time>2026-04-04T10:03:26Z</time></trkpt><trkpt lat="44.33923498633386" lon="9.503752768444008"><ele>950.0</ele><time>2026-04-04T10:03:28Z</time></trkpt><trkpt lat="44.33915491352319" lon="9.503664853116712"><ele>950.0</ele><time>2026-04-04T10:03:30Z</time></trkpt><trkpt lat="44.339047511912554" lon="9.503657607094501"><ele>950.0</ele><time>2026-04-04T10:03:32Z</time></trkpt><trkpt lat="44.338968542064414" lon="9.503735186115886"><ele>950.0</ele><time>2026-04-04T10:03:34.001Z</time></trkpt><trkpt lat="44.33886096352914" lon="9.50381793889196"><ele>950.4</ele><time>2026-04-04T10:03:36.001Z</time></trkpt><trkpt lat="44.33874829994186" lon="9.503847929830563"><ele>950.8</ele><time>2026-04-04T10:03:38.001Z</time></trkpt><trkpt lat="44.33868220980707" lon="9.503834143374839"><ele>951.2</ele><time>2026-04-04T10:03:39.001Z</time></trkpt><trkpt lat="44.33859399372718" lon="9.50375173203713"><ele>951.6</ele><time>2026-04-04T10:03:41.001Z</time></trkpt><trkpt lat="44.33854295766171" lon="9.503674178364449"><ele>952.0</ele><time>2026-04-04T10:03:43.001Z</time></trkpt><trkpt lat="44.33845377731538" lon="9.503580261655214"><ele>951.9999999999999</ele><time>2026-04-04T10:03:45.001Z</time></trkpt><trkpt lat="44.33839059013139" lon="9.503573068132209"><ele>952.0</ele><time>2026-04-04T10:03:47.001Z</time></trkpt><trkpt lat="44.33835907765137" lon="9.503667468890166"><ele>952.0</ele><time>2026-04-04T10:03:49.001Z</time></trkpt><trkpt lat="44.33834975071158" lon="9.503801395382162"><ele>952.0</ele><time>2026-04-04T10:03:50.001Z</time></trkpt><trkpt lat="44.33831522405807" lon="9.503889766014025"><ele>951.9999999999999</ele><time>2026-04-04T10:03:51.001Z</time></trkpt><trkpt lat="44.33826567502762" lon="9.503960366949677"><ele>952.0</ele><time>2026-04-04T10:03:52Z</time></trkpt><trkpt lat="44.33816387779196" lon="9.504103162977605"><ele>952.0</ele><time>2026-04-04T10:03:54Z</time></trkpt><trkpt lat="44.33808979802286" lon="9.504156380732594"><ele>952.0</ele><time>2026-04-04T10:03:55Z</time></trkpt><trkpt lat="44.33803330780613" lon="9.504212317422418"><ele>952.0</ele><time>2026-04-04T10:03:56Z</time></trkpt><trkpt lat="44.33795686136504" lon="9.504254309906134"><ele>952.0</ele><time>2026-04-04T10:03:57Z</time></trkpt><trkpt lat="44.33783816711643" lon="9.504381874541952"><ele>952.0</ele><time>2026-04-04T10:03:59Z</time></trkpt><trkpt lat="44.33775226338014" lon="9.504424972300164"><ele>953.6666666666666</ele><time>2026-04-04T10:04:00Z</time></trkpt><trkpt lat="44.33763010566483" lon="9.504490874207287"><ele>955.3333333333333</ele><time>2026-04-04T10:04:02Z</time></trkpt><trkpt lat="44.33757019125402" lon="9.504537987142449"><ele>957.0</ele><time>2026-04-04T10:04:04Z</time></trkpt><trkpt lat="44.33751264054183" lon="9.504499951364453"><ele>958.6666666666667</ele><time>2026-04-04T10:04:05Z</time></trkpt><trkpt lat="44.33744336395426" lon="9.504432766702093"><ele>960.3333333333334</ele><time>2026-04-04T10:04:06Z</time></trkpt><trkpt lat="44.33736808770182" lon="9.504378757340591"><ele>962.0</ele><time>2026-04-04T10:04:07Z</time></trkpt><trkpt lat="44.337302302011985" lon="9.504344519006443"><ele>962.0000000000001</ele><time>2026-04-04T10:04:08Z</time></trkpt><trkpt lat="44.337223359655496" lon="9.504313620466348"><ele>962.0</ele><time>2026-04-04T10:04:11Z</time></trkpt><trkpt lat="44.33716655083788" lon="9.504250721762906"><ele>962.0</ele><time>2026-04-04T10:04:15Z</time></trkpt><trkpt lat="44.33710710160151" lon="9.504171936576437"><ele>962.0</ele><time>2026-04-04T10:04:44Z</time></trkpt><trkpt lat="44.337035907495924" lon="9.504103406879244"><ele>962.0000000000001</ele><time>2026-04-04T10:04:47Z</time></trkpt><trkpt lat="44.33697848999668" lon="9.504028214520305"><ele>962.0</ele><time>2026-04-04T10:04:49Z</time></trkpt><trkpt lat="44.33691578626743" lon="9.503970527823146"><ele>958.0000000000001</ele><time>2026-04-04T10:04:53Z</time></trkpt><trkpt lat="44.336875352938115" lon="9.503901035853419"><ele>954.0</ele><time>2026-04-04T10:04:57Z</time></trkpt><trkpt lat="44.33696198250813" lon="9.503985666170466"><ele>950.0</ele><time>2026-04-04T10:05:14Z</time></trkpt><trkpt lat="44.33700977772768" lon="9.50408156111719"><ele>946.0</ele><time>2026-04-04T10:05:16Z</time></trkpt><trkpt lat="44.33706155186854" lon="9.504134716624835"><ele>942.0000000000001</ele><time>2026-04-04T10:05:18Z</time></trkpt><trkpt lat="44.337113532483656" lon="9.504200595921112"><ele>938.0</ele><time>2026-04-04T10:05:21Z</time></trkpt><trkpt lat="44.3370436055937" lon="9.50403587941211"><ele>938.0</ele><time>2026-04-04T10:05:41.001Z</time></trkpt><trkpt lat="44.336953991743265" lon="9.503967773976866"><ele>938.0</ele><time>2026-04-04T10:05:42.001Z</time></trkpt><trkpt lat="44.3368948062411" lon="9.503893490003145"><ele>938.0</ele><time>2026-04-04T10:05:58Z</time></trkpt><trkpt lat="44.33684355576532" lon="9.503806617225505"><ele>938.0</ele><time>2026-04-04T10:06:02Z</time></trkpt><trkpt lat="44.336913209562" lon="9.503956749498863"><ele>938.0</ele><time>2026-04-04T10:06:31Z</time></trkpt><trkpt lat="44.33698258199061" lon="9.504040395247436"><ele>938.0</ele><time>2026-04-04T10:06:32Z</time></trkpt><trkpt lat="44.33704150236326" lon="9.504113868898273"><ele>938.0</ele><time>2026-04-04T10:06:33Z</time></trkpt><trkpt lat="44.337130046403956" lon="9.50420013739883"><ele>938.0</ele><time>2026-04-04T10:06:35Z</time></trkpt><trkpt lat="44.3372113068131" lon="9.504282637309874"><ele>938.0</ele><time>2026-04-04T10:06:37Z</time></trkpt><trkpt lat="44.3373021356801" lon="9.504360983804993"><ele>938.0</ele><time>2026-04-04T10:06:39Z</time></trkpt><trkpt lat="44.33740148821238" lon="9.504407036543357"><ele>942.0000000000001</ele><time>2026-04-04T10:06:41Z</time></trkpt><trkpt lat="44.337461980594014" lon="9.504448239761812"><ele>946.0</ele><time>2026-04-04T10:06:42Z</time></trkpt><trkpt lat="44.3375341021839" lon="9.50451315088424"><ele>950.0</ele><time>2026-04-04T10:06:44Z</time></trkpt><trkpt lat="44.33759310478744" lon="9.50456645187072"><ele>954.0</ele><time>2026-04-04T10:06:48Z</time></trkpt><trkpt lat="44.33765336302728" lon="9.504520278240093"><ele>958.0000000000001</ele><time>2026-04-04T10:07:15Z</time></trkpt><trkpt lat="44.33774953925565" lon="9.50445590581599"><ele>962.0</ele><time>2026-04-04T10:07:18Z</time></trkpt><trkpt lat="44.337824518755134" lon="9.504381620484386"><ele>962.0</ele><time>2026-04-04T10:07:20Z</time></trkpt><trkpt lat="44.33790461171145" lon="9.50432090734476"><ele>962.0</ele><time>2026-04-04T10:07:22Z</time></trkpt><trkpt lat="44.338020707427496" lon="9.50425047242631"><ele>962.0</ele><time>2026-04-04T10:07:24Z</time></trkpt><trkpt lat="44.338086555365415" lon="9.504198339964828"><ele>962.0</ele><time>2026-04-04T10:07:25Z</time></trkpt><trkpt lat="44.33812742476972" lon="9.504121562176211"><ele>962.0</ele><time>2026-04-04T10:07:26Z</time></trkpt><trkpt lat="44.33820830210513" lon="9.504019814009016"><ele>960.0</ele><time>2026-04-04T10:07:28Z</time></trkpt><trkpt lat="44.33829529668367" lon="9.50393434679722"><ele>958.0</ele><time>2026-04-04T10:07:30Z</time></trkpt><trkpt lat="44.3383592501154" lon="9.503870866554122"><ele>956.0</ele><time>2026-04-04T10:07:32Z</time></trkpt><trkpt lat="44.33839061425108" lon="9.503739623098944"><ele>954.0</ele><time>2026-04-04T10:07:34Z</time></trkpt><trkpt lat="44.33843660910124" lon="9.503615185634153"><ele>952.0</ele><time>2026-04-04T10:07:37Z</time></trkpt><trkpt lat="44.338521530253104" lon="9.503694513979733"><ele>952.0</ele><time>2026-04-04T10:07:39Z</time></trkpt><trkpt lat="44.3386166712952" lon="9.5037848626644"><ele>952.0</ele><time>2026-04-04T10:07:41Z</time></trkpt><trkpt lat="44.338711113521796" lon="9.503865663004724"><ele>952.0</ele><time>2026-04-04T10:07:43Z</time></trkpt><trkpt lat="44.3388443417584" lon="9.503857355990753"><ele>952.0</ele><time>2026-04-04T10:07:45.001Z</time></trkpt><trkpt lat="44.33895916335827" lon="9.503778420214555"><ele>951.6</ele><time>2026-04-04T10:07:47.001Z</time></trkpt><trkpt lat="44.339052920907704" lon="9.503677765619416"><ele>951.2</ele><time>2026-04-04T10:07:49.001Z</time></trkpt><trkpt lat="44.3391465706711" lon="9.503654114557008"><ele>950.8</ele><time>2026-04-04T10:07:51.001Z</time></trkpt><trkpt lat="44.33927587424735" lon="9.50375284587215"><ele>950.4</ele><time>2026-04-04T10:07:53.001Z</time></trkpt><trkpt lat="44.339326411644386" lon="9.503820059557295"><ele>950.0</ele><time>2026-04-04T10:07:54.001Z</time></trkpt><trkpt lat="44.339429800195596" lon="9.503891907593996"><ele>950.0000000000001</ele><time>2026-04-04T10:07:56.001Z</time></trkpt><trkpt lat="44.339543907999044" lon="9.503862905534364"><ele>950.0</ele><time>2026-04-04T10:07:58.001Z</time></trkpt><trkpt lat="44.33962415866069" lon="9.50382024242521"><ele>950.0</ele><time>2026-04-04T10:07:59.001Z</time></trkpt><trkpt lat="44.339708758812186" lon="9.503758691361291"><ele>950.0</ele><time>2026-04-04T10:08:00.001Z</time></trkpt><trkpt lat="44.33976760913231" lon="9.503702571198321"><ele>950.0000000000001</ele><time>2026-04-04T10:08:01.001Z</time></trkpt><trkpt lat="44.33982801991305" lon="9.503665874005"><ele>950.0</ele><time>2026-04-04T10:08:02.001Z</time></trkpt><trkpt lat="44.33991321507579" lon="9.503638726852577"><ele>951.6666666666667</ele><time>2026-04-04T10:08:03.001Z</time></trkpt><trkpt lat="44.33998307223366" lon="9.503625499864116"><ele>953.3333333333334</ele><time>2026-04-04T10:08:04Z</time></trkpt><trkpt lat="44.34007878001115" lon="9.503675272180383"><ele>955.0</ele><time>2026-04-04T10:08:06Z</time></trkpt><trkpt lat="44.340013445344326" lon="9.503731001371914"><ele>956.6666666666667</ele><time>2026-04-04T10:08:31Z</time></trkpt><trkpt lat="44.34006907276748" lon="9.503849075259899"><ele>958.3333333333334</ele><time>2026-04-04T10:10:30Z</time></trkpt><trkpt lat="44.340144050105565" lon="9.503899662548562"><ele>960.0</ele><time>2026-04-04T10:10:32Z</time></trkpt><trkpt lat="44.34023453860841" lon="9.503981704314269"><ele>960.0</ele><time>2026-04-04T10:10:34Z</time></trkpt><trkpt lat="44.340343500620435" lon="9.503951892659126"><ele>960.0</ele><time>2026-04-04T10:10:36Z</time></trkpt><trkpt lat="44.34041099502216" lon="9.50391490470296"><ele>960.0</ele><time>2026-04-04T10:10:37Z</time></trkpt><trkpt lat="44.34050777246179" lon="9.503953625935361"><ele>960.0</ele><time>2026-04-04T10:10:39Z</time></trkpt><trkpt lat="44.34054265219122" lon="9.504127458764875"><ele>960.0</ele><time>2026-04-04T10:10:41Z</time></trkpt><trkpt lat="44.34056203251006" lon="9.504240986688078"><ele>962.6</ele><time>2026-04-04T10:10:42Z</time></trkpt><trkpt lat="44.34058259531493" lon="9.5043316176538"><ele>965.2</ele><time>2026-04-04T10:10:43Z</time></trkpt><trkpt lat="44.340605752652344" lon="9.504414611259536"><ele>967.8</ele><time>2026-04-04T10:10:44Z</time></trkpt><trkpt lat="44.340609730225374" lon="9.504591357855215"><ele>970.4</ele><time>2026-04-04T10:10:46Z</time></trkpt><trkpt lat="44.34066337095988" lon="9.50470696392361"><ele>973.0</ele><time>2026-04-04T10:10:48Z</time></trkpt><trkpt lat="44.34077548422651" lon="9.504753005607366"><ele>972.9999999999999</ele><time>2026-04-04T10:10:50Z</time></trkpt><trkpt lat="44.34088194239873" lon="9.504727587482177"><ele>973.0</ele><time>2026-04-04T10:10:52Z</time></trkpt><trkpt lat="44.34094666061743" lon="9.504672951033"><ele>973.0</ele><time>2026-04-04T10:10:53Z</time></trkpt><trkpt lat="44.34100904288367" lon="9.50462886422975"><ele>973.0</ele><time>2026-04-04T10:10:54Z</time></trkpt><trkpt lat="44.34111568771608" lon="9.504646861430585"><ele>972.9999999999999</ele><time>2026-04-04T10:10:56Z</time></trkpt><trkpt lat="44.341166939815544" lon="9.504698446777466"><ele>973.0</ele><time>2026-04-04T10:10:57Z</time></trkpt><trkpt lat="44.34120629745695" lon="9.504794408342656"><ele>973.0</ele><time>2026-04-04T10:10:58Z</time></trkpt><trkpt lat="44.34125231963661" lon="9.504944944036378"><ele>973.0</ele><time>2026-04-04T10:11:00Z</time></trkpt><trkpt lat="44.3412708120571" lon="9.5050465192087"><ele>973.0</ele><time>2026-04-04T10:11:01Z</time></trkpt><trkpt lat="44.34128545110215" lon="9.505141489347553"><ele>973.0</ele><time>2026-04-04T10:11:02Z</time></trkpt><trkpt lat="44.341285698262034" lon="9.505237203436526"><ele>973.0</ele><time>2026-04-04T10:11:03Z</time></trkpt><trkpt lat="44.341264359589864" lon="9.505401691439474"><ele>971.3333333333333</ele><time>2026-04-04T10:11:05Z</time></trkpt><trkpt lat="44.34132278212837" lon="9.505461861660923"><ele>969.6666666666666</ele><time>2026-04-04T10:11:08Z</time></trkpt><trkpt lat="44.34138770394864" lon="9.505538859823067"><ele>968.0</ele><time>2026-04-04T10:11:10Z</time></trkpt><trkpt lat="44.34145844081506" lon="9.505596311516264"><ele>966.3333333333333</ele><time>2026-04-04T10:11:13Z</time></trkpt><trkpt lat="44.34151462979293" lon="9.505654827713714"><ele>964.6666666666666</ele><time>2026-04-04T10:11:39Z</time></trkpt><trkpt lat="44.341586690677964" lon="9.505644453147047"><ele>963.0</ele><time>2026-04-04T10:11:42Z</time></trkpt><trkpt lat="44.34157020653843" lon="9.505535943475424"><ele>964.6666666666666</ele><time>2026-04-04T10:12:01Z</time></trkpt><trkpt lat="44.34152445021858" lon="9.505464338482852"><ele>966.3333333333333</ele><time>2026-04-04T10:12:09Z</time></trkpt><trkpt lat="44.34146783295603" lon="9.505410507129804"><ele>968.0</ele><time>2026-04-04T10:12:11Z</time></trkpt><trkpt lat="44.34143575170036" lon="9.505307543322422"><ele>969.6666666666666</ele><time>2026-04-04T10:12:13Z</time></trkpt><trkpt lat="44.34138357914028" lon="9.50517943851481"><ele>971.3333333333333</ele><time>2026-04-04T10:12:15Z</time></trkpt><trkpt lat="44.34134832271386" lon="9.505056286007195"><ele>973.0</ele><time>2026-04-04T10:12:17Z</time></trkpt><trkpt lat="44.34129143150664" lon="9.504921237360152"><ele>973.0</ele><time>2026-04-04T10:12:19Z</time></trkpt><trkpt lat="44.34125747207886" lon="9.504811156392702"><ele>973.0</ele><time>2026-04-04T10:12:21Z</time></trkpt><trkpt lat="44.34118818988802" lon="9.504757756683192"><ele>973.0</ele><time>2026-04-04T10:12:24Z</time></trkpt><trkpt lat="44.34112157492812" lon="9.504669720946954"><ele>973.0</ele><time>2026-04-04T10:12:27Z</time></trkpt><trkpt lat="44.34103457228649" lon="9.504673105295858"><ele>973.0</ele><time>2026-04-04T10:12:30Z</time></trkpt><trkpt lat="44.34090894674475" lon="9.504689560537264"><ele>972.9999999999999</ele><time>2026-04-04T10:12:34Z</time></trkpt><trkpt lat="44.34080798374512" lon="9.504721854232004"><ele>973.0</ele><time>2026-04-04T10:13:00Z</time></trkpt><trkpt lat="44.34073054836088" lon="9.504721276892832"><ele>973.0</ele><time>2026-04-04T10:13:03Z</time></trkpt><trkpt lat="44.340673613228496" lon="9.504664624960691"><ele>973.0</ele><time>2026-04-04T10:13:05Z</time></trkpt><trkpt lat="44.34062458035879" lon="9.504586488158834"><ele>972.9999999999999</ele><time>2026-04-04T10:13:08Z</time></trkpt><trkpt lat="44.340613919890686" lon="9.504454057743999"><ele>973.0</ele><time>2026-04-04T10:13:11Z</time></trkpt><trkpt lat="44.34058379981958" lon="9.504316121378578"><ele>973.4</ele><time>2026-04-04T10:13:14Z</time></trkpt><trkpt lat="44.34055062813166" lon="9.504187646600121"><ele>973.8</ele><time>2026-04-04T10:13:16Z</time></trkpt><trkpt lat="44.340524974566165" lon="9.504074088916012"><ele>974.2</ele><time>2026-04-04T10:13:18Z</time></trkpt><trkpt lat="44.340481459174974" lon="9.503976925101703"><ele>974.6</ele><time>2026-04-04T10:13:20Z</time></trkpt><trkpt lat="44.340437908117835" lon="9.503890118792297"><ele>975.0</ele><time>2026-04-04T10:13:22Z</time></trkpt><trkpt lat="44.340320258437735" lon="9.503919427087386"><ele>972.5</ele><time>2026-04-04T10:13:24Z</time></trkpt><trkpt lat="44.34024281510505" lon="9.50395753079123"><ele>970.0</ele><time>2026-04-04T10:13:26Z</time></trkpt><trkpt lat="44.34015115639247" lon="9.503909476304173"><ele>967.5</ele><time>2026-04-04T10:13:29Z</time></trkpt><trkpt lat="44.34009804347294" lon="9.503844626763216"><ele>965.0</ele><time>2026-04-04T10:13:31Z</time></trkpt><trkpt lat="44.34005082051794" lon="9.503781917916294"><ele>962.5</ele><time>2026-04-04T10:13:33Z</time></trkpt><trkpt lat="44.34000423326287" lon="9.5037004450653"><ele>960.0</ele><time>2026-04-04T10:13:35Z</time></trkpt><trkpt lat="44.33998933851702" lon="9.503609923281989"><ele>960.0</ele><time>2026-04-04T10:13:38Z</time></trkpt><trkpt lat="44.339927171086934" lon="9.503638260479136"><ele>960.0</ele><time>2026-04-04T10:17:42Z</time></trkpt><trkpt lat="44.339867251570496" lon="9.503610817906111"><ele>960.0</ele><time>2026-04-04T10:17:46Z</time></trkpt><trkpt lat="44.33979728871877" lon="9.503573959840372"><ele>960.0</ele><time>2026-04-04T10:17:51Z</time></trkpt><trkpt lat="44.33973833971291" lon="9.503522777486143"><ele>960.0</ele><time>2026-04-04T10:17:58Z</time></trkpt><trkpt lat="44.339668958311115" lon="9.50348187721375"><ele>960.0</ele><time>2026-04-04T10:18:02Z</time></trkpt><trkpt lat="44.339610343234284" lon="9.503424347623023"><ele>960.0</ele><time>2026-04-04T10:18:05Z</time></trkpt><trkpt lat="44.33952496601554" lon="9.50338049615024"><ele>960.0</ele><time>2026-04-04T10:18:10.001Z</time></trkpt><trkpt lat="44.33955180227079" lon="9.503298292033593"><ele>960.0</ele><time>2026-04-04T10:18:17.001Z</time></trkpt><trkpt lat="44.339532732518244" lon="9.503382794331282"><ele>960.0</ele><time>2026-04-04T10:19:08Z</time></trkpt><trkpt lat="44.33959820923584" lon="9.503419361992394"><ele>960.0</ele><time>2026-04-04T10:19:13Z</time></trkpt><trkpt lat="44.339657138402295" lon="9.503488642679887"><ele>960.0</ele><time>2026-04-04T10:19:18Z</time></trkpt><trkpt lat="44.33971548380037" lon="9.503524265943266"><ele>960.0</ele><time>2026-04-04T10:19:23Z</time></trkpt><trkpt lat="44.339781894612784" lon="9.503571985769181"><ele>960.0</ele><time>2026-04-04T10:19:29Z</time></trkpt><trkpt lat="44.33984515610231" lon="9.503616154376658"><ele>960.0</ele><time>2026-04-04T10:19:34Z</time></trkpt><trkpt lat="44.339912989015104" lon="9.503643239347133"><ele>960.0</ele><time>2026-04-04T10:19:39Z</time></trkpt><trkpt lat="44.33998766740687" lon="9.503655496889149"><ele>960.0</ele><time>2026-04-04T10:21:25Z</time></trkpt></trkseg></trk></gpx>